<?xml version="1.0" encoding="UTF-8" standalone="no" ?>
<gpx xmlns="http://www.topografix.com/GPX/1/1" xmlns:xsi="http://www.w3.org/2001/XMLSchema-instance" xsi:schemaLocation="http://www.topografix.com/GPX/1/1 http://www.topografix.com/GPX/1/1/gpx.xsd" version="1.1" creator="VisuGPX - https://www.visugpx.com">
  <metadata>
    <name>Rando - Ile Ste Lucie</name>
    <desc><![CDATA[Tour de l\'ile Ste lucie]]></desc>
  </metadata>
  <trk>
    <name><![CDATA[2012-03-04T09:56:31Z]]></name>
    <trkseg>
      <trkpt lat="43.04242" lon="3.05307">
        <ele>-2.908</ele>
        <time>2012-03-04T09:56:32Z</time>
      </trkpt>
      <trkpt lat="43.04242" lon="3.05306">
        <ele>-2.532</ele>
        <time>2012-03-04T09:56:37Z</time>
      </trkpt>
      <trkpt lat="43.04241" lon="3.05307">
        <ele>-1.672</ele>
        <time>2012-03-04T09:56:43Z</time>
      </trkpt>
      <trkpt lat="43.04245" lon="3.05306">
        <ele>3.36</ele>
        <time>2012-03-04T09:57:00Z</time>
      </trkpt>
      <trkpt lat="43.04248" lon="3.05311">
        <ele>2.718</ele>
        <time>2012-03-04T09:57:06Z</time>
      </trkpt>
      <trkpt lat="43.0425" lon="3.05312">
        <ele>3.819</ele>
        <time>2012-03-04T09:57:14Z</time>
      </trkpt>
      <trkpt lat="43.04255" lon="3.05313">
        <ele>1.408</ele>
        <time>2012-03-04T09:57:19Z</time>
      </trkpt>
      <trkpt lat="43.04265" lon="3.05316">
        <ele>3.109</ele>
        <time>2012-03-04T09:57:26Z</time>
      </trkpt>
      <trkpt lat="43.04272" lon="3.0532">
        <ele>1.558</ele>
        <time>2012-03-04T09:57:32Z</time>
      </trkpt>
      <trkpt lat="43.04279" lon="3.05323">
        <ele>2.098</ele>
        <time>2012-03-04T09:57:37Z</time>
      </trkpt>
      <trkpt lat="43.0429" lon="3.0533">
        <ele>3.828</ele>
        <time>2012-03-04T09:57:45Z</time>
      </trkpt>
      <trkpt lat="43.04295" lon="3.05335">
        <ele>3.978</ele>
        <time>2012-03-04T09:57:50Z</time>
      </trkpt>
      <trkpt lat="43.04296" lon="3.05336">
        <ele>3.978</ele>
        <time>2012-03-04T09:57:51Z</time>
      </trkpt>
      <trkpt lat="43.04303" lon="3.05341">
        <ele>3.948</ele>
        <time>2012-03-04T09:57:58Z</time>
      </trkpt>
      <trkpt lat="43.04312" lon="3.05343">
        <ele>0.756</ele>
        <time>2012-03-04T09:58:05Z</time>
      </trkpt>
      <trkpt lat="43.04323" lon="3.05349">
        <ele>-0.083</ele>
        <time>2012-03-04T09:58:13Z</time>
      </trkpt>
      <trkpt lat="43.04333" lon="3.05355">
        <ele>0.608</ele>
        <time>2012-03-04T09:58:21Z</time>
      </trkpt>
      <trkpt lat="43.0434" lon="3.0536">
        <ele>1.379</ele>
        <time>2012-03-04T09:58:27Z</time>
      </trkpt>
      <trkpt lat="43.04348" lon="3.05364">
        <ele>0.088</ele>
        <time>2012-03-04T09:58:33Z</time>
      </trkpt>
      <trkpt lat="43.04353" lon="3.05367">
        <ele>-0.732</ele>
        <time>2012-03-04T09:58:38Z</time>
      </trkpt>
      <trkpt lat="43.04362" lon="3.05375">
        <ele>-0.662</ele>
        <time>2012-03-04T09:58:46Z</time>
      </trkpt>
      <trkpt lat="43.04372" lon="3.05382">
        <ele>0.779</ele>
        <time>2012-03-04T09:58:55Z</time>
      </trkpt>
      <trkpt lat="43.0438" lon="3.05385">
        <ele>0.588</ele>
        <time>2012-03-04T09:59:01Z</time>
      </trkpt>
      <trkpt lat="43.0439" lon="3.05394">
        <ele>0.549</ele>
        <time>2012-03-04T09:59:09Z</time>
      </trkpt>
      <trkpt lat="43.04398" lon="3.05398">
        <ele>2.849</ele>
        <time>2012-03-04T09:59:15Z</time>
      </trkpt>
      <trkpt lat="43.04404" lon="3.05401">
        <ele>4.9</ele>
        <time>2012-03-04T09:59:20Z</time>
      </trkpt>
      <trkpt lat="43.04412" lon="3.05409">
        <ele>4.358</ele>
        <time>2012-03-04T09:59:28Z</time>
      </trkpt>
      <trkpt lat="43.04422" lon="3.05416">
        <ele>3.429</ele>
        <time>2012-03-04T09:59:36Z</time>
      </trkpt>
      <trkpt lat="43.0443" lon="3.05423">
        <ele>3.838</ele>
        <time>2012-03-04T09:59:44Z</time>
      </trkpt>
      <trkpt lat="43.04439" lon="3.05429">
        <ele>4.038</ele>
        <time>2012-03-04T09:59:53Z</time>
      </trkpt>
      <trkpt lat="43.0445" lon="3.05435">
        <ele>4.939</ele>
        <time>2012-03-04T10:00:01Z</time>
      </trkpt>
      <trkpt lat="43.04461" lon="3.05443">
        <ele>6.63</ele>
        <time>2012-03-04T10:00:10Z</time>
      </trkpt>
      <trkpt lat="43.04472" lon="3.0545">
        <ele>7.479</ele>
        <time>2012-03-04T10:00:18Z</time>
      </trkpt>
      <trkpt lat="43.04483" lon="3.05457">
        <ele>6.961</ele>
        <time>2012-03-04T10:00:28Z</time>
      </trkpt>
      <trkpt lat="43.04492" lon="3.05462">
        <ele>7.84</ele>
        <time>2012-03-04T10:00:36Z</time>
      </trkpt>
      <trkpt lat="43.04502" lon="3.05469">
        <ele>9.91</ele>
        <time>2012-03-04T10:00:44Z</time>
      </trkpt>
      <trkpt lat="43.04516" lon="3.05477">
        <ele>9.29</ele>
        <time>2012-03-04T10:00:55Z</time>
      </trkpt>
      <trkpt lat="43.04525" lon="3.05483">
        <ele>10.24</ele>
        <time>2012-03-04T10:01:02Z</time>
      </trkpt>
      <trkpt lat="43.04535" lon="3.0549">
        <ele>8.189</ele>
        <time>2012-03-04T10:01:11Z</time>
      </trkpt>
      <trkpt lat="43.04542" lon="3.05496">
        <ele>7.759</ele>
        <time>2012-03-04T10:01:17Z</time>
      </trkpt>
      <trkpt lat="43.04551" lon="3.05503">
        <ele>8.12</ele>
        <time>2012-03-04T10:01:25Z</time>
      </trkpt>
      <trkpt lat="43.04562" lon="3.0551">
        <ele>8.5</ele>
        <time>2012-03-04T10:01:33Z</time>
      </trkpt>
      <trkpt lat="43.04563" lon="3.05512">
        <ele>7.689</ele>
        <time>2012-03-04T10:01:35Z</time>
      </trkpt>
      <trkpt lat="43.04567" lon="3.05515">
        <ele>6.529</ele>
        <time>2012-03-04T10:01:39Z</time>
      </trkpt>
      <trkpt lat="43.04576" lon="3.05521">
        <ele>4.679</ele>
        <time>2012-03-04T10:01:47Z</time>
      </trkpt>
      <trkpt lat="43.04587" lon="3.05529">
        <ele>1.598</ele>
        <time>2012-03-04T10:01:56Z</time>
      </trkpt>
      <trkpt lat="43.04597" lon="3.05535">
        <ele>3.68</ele>
        <time>2012-03-04T10:02:03Z</time>
      </trkpt>
      <trkpt lat="43.04607" lon="3.0554">
        <ele>3.21</ele>
        <time>2012-03-04T10:02:10Z</time>
      </trkpt>
      <trkpt lat="43.04617" lon="3.05546">
        <ele>3.43</ele>
        <time>2012-03-04T10:02:18Z</time>
      </trkpt>
      <trkpt lat="43.04624" lon="3.05551">
        <ele>-1.742</ele>
        <time>2012-03-04T10:02:26Z</time>
      </trkpt>
      <trkpt lat="43.04635" lon="3.05557">
        <ele>-0.98</ele>
        <time>2012-03-04T10:02:33Z</time>
      </trkpt>
      <trkpt lat="43.04644" lon="3.05559">
        <ele>-2.241</ele>
        <time>2012-03-04T10:02:39Z</time>
      </trkpt>
      <trkpt lat="43.04649" lon="3.05561">
        <ele>-2.83</ele>
        <time>2012-03-04T10:02:43Z</time>
      </trkpt>
      <trkpt lat="43.04657" lon="3.05569">
        <ele>-4.481</ele>
        <time>2012-03-04T10:02:52Z</time>
      </trkpt>
      <trkpt lat="43.04669" lon="3.05574">
        <ele>-3.46</ele>
        <time>2012-03-04T10:03:02Z</time>
      </trkpt>
      <trkpt lat="43.04683" lon="3.05581">
        <ele>-1.68</ele>
        <time>2012-03-04T10:03:13Z</time>
      </trkpt>
      <trkpt lat="43.0469" lon="3.05587">
        <ele>-0.9</ele>
        <time>2012-03-04T10:03:19Z</time>
      </trkpt>
      <trkpt lat="43.04691" lon="3.05588">
        <ele>-1.34</ele>
        <time>2012-03-04T10:03:20Z</time>
      </trkpt>
      <trkpt lat="43.04697" lon="3.05587">
        <ele>0.862</ele>
        <time>2012-03-04T10:03:25Z</time>
      </trkpt>
      <trkpt lat="43.04705" lon="3.0559">
        <ele>0.821</ele>
        <time>2012-03-04T10:03:33Z</time>
      </trkpt>
      <trkpt lat="43.04709" lon="3.0559">
        <ele>0.71</ele>
        <time>2012-03-04T10:03:39Z</time>
      </trkpt>
      <trkpt lat="43.04711" lon="3.05592">
        <ele>-1.04</ele>
        <time>2012-03-04T10:03:45Z</time>
      </trkpt>
      <trkpt lat="43.04713" lon="3.05598">
        <ele>-0.66</ele>
        <time>2012-03-04T10:03:50Z</time>
      </trkpt>
      <trkpt lat="43.04716" lon="3.05608">
        <ele>-1.11</ele>
        <time>2012-03-04T10:03:57Z</time>
      </trkpt>
      <trkpt lat="43.04715" lon="3.05613">
        <ele>-2.32</ele>
        <time>2012-03-04T10:04:04Z</time>
      </trkpt>
      <trkpt lat="43.04716" lon="3.05615">
        <ele>-3.329</ele>
        <time>2012-03-04T10:04:54Z</time>
      </trkpt>
      <trkpt lat="43.04716" lon="3.05614">
        <ele>-2.119</ele>
        <time>2012-03-04T10:04:58Z</time>
      </trkpt>
      <trkpt lat="43.0472" lon="3.05612">
        <ele>1.141</ele>
        <time>2012-03-04T10:05:04Z</time>
      </trkpt>
      <trkpt lat="43.04727" lon="3.05609">
        <ele>1.51</ele>
        <time>2012-03-04T10:05:13Z</time>
      </trkpt>
      <trkpt lat="43.04732" lon="3.05606">
        <ele>0.78</ele>
        <time>2012-03-04T10:05:19Z</time>
      </trkpt>
      <trkpt lat="43.04734" lon="3.05601">
        <ele>1.33</ele>
        <time>2012-03-04T10:05:23Z</time>
      </trkpt>
      <trkpt lat="43.04734" lon="3.05599">
        <ele>1.26</ele>
        <time>2012-03-04T10:05:25Z</time>
      </trkpt>
      <trkpt lat="43.04737" lon="3.0559">
        <ele>5.102</ele>
        <time>2012-03-04T10:05:32Z</time>
      </trkpt>
      <trkpt lat="43.04738" lon="3.05584">
        <ele>7.282</ele>
        <time>2012-03-04T10:05:37Z</time>
      </trkpt>
      <trkpt lat="43.04738" lon="3.0558">
        <ele>8.321</ele>
        <time>2012-03-04T10:05:43Z</time>
      </trkpt>
      <trkpt lat="43.0474" lon="3.05578">
        <ele>12.081</ele>
        <time>2012-03-04T10:05:52Z</time>
      </trkpt>
      <trkpt lat="43.04743" lon="3.05569">
        <ele>9.429</ele>
        <time>2012-03-04T10:05:58Z</time>
      </trkpt>
      <trkpt lat="43.04746" lon="3.05563">
        <ele>9.54</ele>
        <time>2012-03-04T10:06:02Z</time>
      </trkpt>
      <trkpt lat="43.04747" lon="3.0556">
        <ele>8.88</ele>
        <time>2012-03-04T10:06:04Z</time>
      </trkpt>
      <trkpt lat="43.04752" lon="3.0555">
        <ele>10.972</ele>
        <time>2012-03-04T10:06:12Z</time>
      </trkpt>
      <trkpt lat="43.04756" lon="3.05539">
        <ele>8.611</ele>
        <time>2012-03-04T10:06:21Z</time>
      </trkpt>
      <trkpt lat="43.04759" lon="3.05529">
        <ele>8.391</ele>
        <time>2012-03-04T10:06:28Z</time>
      </trkpt>
      <trkpt lat="43.04761" lon="3.05517">
        <ele>7.2</ele>
        <time>2012-03-04T10:06:35Z</time>
      </trkpt>
      <trkpt lat="43.04766" lon="3.055">
        <ele>7.001</ele>
        <time>2012-03-04T10:06:45Z</time>
      </trkpt>
      <trkpt lat="43.04772" lon="3.0548">
        <ele>4.959</ele>
        <time>2012-03-04T10:06:58Z</time>
      </trkpt>
      <trkpt lat="43.04777" lon="3.05465">
        <ele>4.98</ele>
        <time>2012-03-04T10:07:08Z</time>
      </trkpt>
      <trkpt lat="43.04783" lon="3.05446">
        <ele>5.701</ele>
        <time>2012-03-04T10:07:20Z</time>
      </trkpt>
      <trkpt lat="43.04786" lon="3.05435">
        <ele>5.56</ele>
        <time>2012-03-04T10:07:28Z</time>
      </trkpt>
      <trkpt lat="43.04789" lon="3.05428">
        <ele>5.671</ele>
        <time>2012-03-04T10:07:33Z</time>
      </trkpt>
      <trkpt lat="43.04792" lon="3.05409">
        <ele>8.861</ele>
        <time>2012-03-04T10:07:46Z</time>
      </trkpt>
      <trkpt lat="43.04792" lon="3.05394">
        <ele>7.69</ele>
        <time>2012-03-04T10:07:54Z</time>
      </trkpt>
      <trkpt lat="43.04793" lon="3.05392">
        <ele>8.011</ele>
        <time>2012-03-04T10:07:56Z</time>
      </trkpt>
      <trkpt lat="43.04791" lon="3.05389">
        <ele>5.279</ele>
        <time>2012-03-04T10:08:03Z</time>
      </trkpt>
      <trkpt lat="43.0479" lon="3.0539">
        <ele>4.37</ele>
        <time>2012-03-04T10:08:09Z</time>
      </trkpt>
      <trkpt lat="43.04785" lon="3.05386">
        <ele>4.57</ele>
        <time>2012-03-04T10:08:13Z</time>
      </trkpt>
      <trkpt lat="43.04778" lon="3.05381">
        <ele>4.62</ele>
        <time>2012-03-04T10:08:20Z</time>
      </trkpt>
      <trkpt lat="43.04773" lon="3.05378">
        <ele>4.1</ele>
        <time>2012-03-04T10:08:26Z</time>
      </trkpt>
      <trkpt lat="43.04771" lon="3.05368">
        <ele>7.392</ele>
        <time>2012-03-04T10:08:32Z</time>
      </trkpt>
      <trkpt lat="43.0477" lon="3.05357">
        <ele>6.09</ele>
        <time>2012-03-04T10:08:40Z</time>
      </trkpt>
      <trkpt lat="43.04771" lon="3.05342">
        <ele>6.721</ele>
        <time>2012-03-04T10:08:51Z</time>
      </trkpt>
      <trkpt lat="43.04771" lon="3.05329">
        <ele>6.731</ele>
        <time>2012-03-04T10:08:59Z</time>
      </trkpt>
      <trkpt lat="43.04774" lon="3.05313">
        <ele>8.162</ele>
        <time>2012-03-04T10:09:09Z</time>
      </trkpt>
      <trkpt lat="43.04777" lon="3.05301">
        <ele>10.902</ele>
        <time>2012-03-04T10:09:17Z</time>
      </trkpt>
      <trkpt lat="43.0478" lon="3.05283">
        <ele>13.902</ele>
        <time>2012-03-04T10:09:28Z</time>
      </trkpt>
      <trkpt lat="43.04782" lon="3.05272">
        <ele>14.741</ele>
        <time>2012-03-04T10:09:35Z</time>
      </trkpt>
      <trkpt lat="43.04785" lon="3.0526">
        <ele>14.981</ele>
        <time>2012-03-04T10:09:43Z</time>
      </trkpt>
      <trkpt lat="43.04788" lon="3.05247">
        <ele>15.921</ele>
        <time>2012-03-04T10:09:51Z</time>
      </trkpt>
      <trkpt lat="43.04792" lon="3.05229">
        <ele>16.331</ele>
        <time>2012-03-04T10:10:03Z</time>
      </trkpt>
      <trkpt lat="43.04795" lon="3.05216">
        <ele>15.931</ele>
        <time>2012-03-04T10:10:12Z</time>
      </trkpt>
      <trkpt lat="43.04797" lon="3.05202">
        <ele>14.61</ele>
        <time>2012-03-04T10:10:20Z</time>
      </trkpt>
      <trkpt lat="43.048" lon="3.05183">
        <ele>15.01</ele>
        <time>2012-03-04T10:10:31Z</time>
      </trkpt>
      <trkpt lat="43.048" lon="3.05169">
        <ele>14.48</ele>
        <time>2012-03-04T10:10:38Z</time>
      </trkpt>
      <trkpt lat="43.04805" lon="3.05156">
        <ele>13.971</ele>
        <time>2012-03-04T10:10:47Z</time>
      </trkpt>
      <trkpt lat="43.04808" lon="3.05145">
        <ele>13.46</ele>
        <time>2012-03-04T10:10:54Z</time>
      </trkpt>
      <trkpt lat="43.04813" lon="3.05136">
        <ele>14.321</ele>
        <time>2012-03-04T10:11:01Z</time>
      </trkpt>
      <trkpt lat="43.04817" lon="3.05131">
        <ele>14.171</ele>
        <time>2012-03-04T10:11:05Z</time>
      </trkpt>
      <trkpt lat="43.04818" lon="3.05128">
        <ele>11.98</ele>
        <time>2012-03-04T10:11:07Z</time>
      </trkpt>
      <trkpt lat="43.0482" lon="3.05128">
        <ele>12.34</ele>
        <time>2012-03-04T10:11:09Z</time>
      </trkpt>
      <trkpt lat="43.04826" lon="3.05123">
        <ele>10.249</ele>
        <time>2012-03-04T10:11:17Z</time>
      </trkpt>
      <trkpt lat="43.04834" lon="3.0512">
        <ele>7.409</ele>
        <time>2012-03-04T10:11:25Z</time>
      </trkpt>
      <trkpt lat="43.04843" lon="3.05115">
        <ele>8.059</ele>
        <time>2012-03-04T10:11:33Z</time>
      </trkpt>
      <trkpt lat="43.04846" lon="3.05114">
        <ele>7.969</ele>
        <time>2012-03-04T10:11:37Z</time>
      </trkpt>
      <trkpt lat="43.04855" lon="3.05109">
        <ele>8.04</ele>
        <time>2012-03-04T10:11:46Z</time>
      </trkpt>
      <trkpt lat="43.04863" lon="3.05104">
        <ele>8.65</ele>
        <time>2012-03-04T10:11:54Z</time>
      </trkpt>
      <trkpt lat="43.04868" lon="3.05099">
        <ele>9.42</ele>
        <time>2012-03-04T10:11:59Z</time>
      </trkpt>
      <trkpt lat="43.04875" lon="3.05096">
        <ele>6.429</ele>
        <time>2012-03-04T10:12:07Z</time>
      </trkpt>
      <trkpt lat="43.04881" lon="3.05093">
        <ele>6.469</ele>
        <time>2012-03-04T10:12:14Z</time>
      </trkpt>
      <trkpt lat="43.04891" lon="3.05088">
        <ele>5.699</ele>
        <time>2012-03-04T10:12:21Z</time>
      </trkpt>
      <trkpt lat="43.04893" lon="3.05086">
        <ele>4.829</ele>
        <time>2012-03-04T10:12:23Z</time>
      </trkpt>
      <trkpt lat="43.04895" lon="3.05082">
        <ele>6.981</ele>
        <time>2012-03-04T10:12:26Z</time>
      </trkpt>
      <trkpt lat="43.049" lon="3.05081">
        <ele>9.742</ele>
        <time>2012-03-04T10:12:29Z</time>
      </trkpt>
      <trkpt lat="43.04901" lon="3.05077">
        <ele>14.262</ele>
        <time>2012-03-04T10:12:37Z</time>
      </trkpt>
      <trkpt lat="43.04898" lon="3.05071">
        <ele>17.872</ele>
        <time>2012-03-04T10:12:47Z</time>
      </trkpt>
      <trkpt lat="43.04902" lon="3.05076">
        <ele>14.429</ele>
        <time>2012-03-04T10:12:55Z</time>
      </trkpt>
      <trkpt lat="43.04903" lon="3.05077">
        <ele>14.199</ele>
        <time>2012-03-04T10:12:56Z</time>
      </trkpt>
      <trkpt lat="43.04905" lon="3.05078">
        <ele>14.3</ele>
        <time>2012-03-04T10:12:58Z</time>
      </trkpt>
      <trkpt lat="43.04912" lon="3.05077">
        <ele>14.54</ele>
        <time>2012-03-04T10:13:07Z</time>
      </trkpt>
      <trkpt lat="43.04916" lon="3.05074">
        <ele>14.42</ele>
        <time>2012-03-04T10:13:14Z</time>
      </trkpt>
      <trkpt lat="43.04926" lon="3.05064">
        <ele>14.38</ele>
        <time>2012-03-04T10:13:25Z</time>
      </trkpt>
      <trkpt lat="43.04935" lon="3.05053">
        <ele>14.69</ele>
        <time>2012-03-04T10:13:36Z</time>
      </trkpt>
      <trkpt lat="43.04942" lon="3.05045">
        <ele>14.99</ele>
        <time>2012-03-04T10:13:43Z</time>
      </trkpt>
      <trkpt lat="43.04947" lon="3.05038">
        <ele>14.22</ele>
        <time>2012-03-04T10:13:49Z</time>
      </trkpt>
      <trkpt lat="43.04951" lon="3.05029">
        <ele>12.378</ele>
        <time>2012-03-04T10:13:56Z</time>
      </trkpt>
      <trkpt lat="43.04952" lon="3.05028">
        <ele>12.706</ele>
        <time>2012-03-04T10:13:57Z</time>
      </trkpt>
      <trkpt lat="43.04957" lon="3.05016">
        <ele>14.871</ele>
        <time>2012-03-04T10:14:05Z</time>
      </trkpt>
      <trkpt lat="43.0496" lon="3.05007">
        <ele>12.309</ele>
        <time>2012-03-04T10:14:13Z</time>
      </trkpt>
      <trkpt lat="43.04963" lon="3.04993">
        <ele>13.28</ele>
        <time>2012-03-04T10:14:22Z</time>
      </trkpt>
      <trkpt lat="43.04967" lon="3.04982">
        <ele>12.86</ele>
        <time>2012-03-04T10:14:29Z</time>
      </trkpt>
      <trkpt lat="43.04969" lon="3.04975">
        <ele>11.849</ele>
        <time>2012-03-04T10:14:34Z</time>
      </trkpt>
      <trkpt lat="43.04971" lon="3.0497">
        <ele>13.609</ele>
        <time>2012-03-04T10:14:38Z</time>
      </trkpt>
      <trkpt lat="43.04974" lon="3.04958">
        <ele>14.39</ele>
        <time>2012-03-04T10:14:45Z</time>
      </trkpt>
      <trkpt lat="43.04978" lon="3.04948">
        <ele>13.79</ele>
        <time>2012-03-04T10:14:52Z</time>
      </trkpt>
      <trkpt lat="43.0498" lon="3.04939">
        <ele>13.418</ele>
        <time>2012-03-04T10:14:58Z</time>
      </trkpt>
      <trkpt lat="43.0498" lon="3.04928">
        <ele>9.438</ele>
        <time>2012-03-04T10:15:05Z</time>
      </trkpt>
      <trkpt lat="43.0498" lon="3.04926">
        <ele>8.978</ele>
        <time>2012-03-04T10:15:07Z</time>
      </trkpt>
      <trkpt lat="43.0498" lon="3.04914">
        <ele>9.38</ele>
        <time>2012-03-04T10:15:14Z</time>
      </trkpt>
      <trkpt lat="43.0498" lon="3.04907">
        <ele>11.831</ele>
        <time>2012-03-04T10:15:18Z</time>
      </trkpt>
      <trkpt lat="43.04979" lon="3.04894">
        <ele>15.243</ele>
        <time>2012-03-04T10:15:25Z</time>
      </trkpt>
      <trkpt lat="43.04979" lon="3.04889">
        <ele>16.112</ele>
        <time>2012-03-04T10:15:28Z</time>
      </trkpt>
      <trkpt lat="43.04979" lon="3.04882">
        <ele>16.822</ele>
        <time>2012-03-04T10:15:32Z</time>
      </trkpt>
      <trkpt lat="43.04979" lon="3.04872">
        <ele>16.811</ele>
        <time>2012-03-04T10:15:38Z</time>
      </trkpt>
      <trkpt lat="43.04981" lon="3.04858">
        <ele>18.6</ele>
        <time>2012-03-04T10:15:47Z</time>
      </trkpt>
      <trkpt lat="43.04984" lon="3.04845">
        <ele>17.619</ele>
        <time>2012-03-04T10:15:56Z</time>
      </trkpt>
      <trkpt lat="43.04984" lon="3.0484">
        <ele>16.839</ele>
        <time>2012-03-04T10:15:59Z</time>
      </trkpt>
      <trkpt lat="43.04988" lon="3.04831">
        <ele>14.766</ele>
        <time>2012-03-04T10:16:04Z</time>
      </trkpt>
      <trkpt lat="43.04989" lon="3.04825">
        <ele>14.759</ele>
        <time>2012-03-04T10:16:08Z</time>
      </trkpt>
      <trkpt lat="43.04994" lon="3.04804">
        <ele>17.74</ele>
        <time>2012-03-04T10:16:22Z</time>
      </trkpt>
      <trkpt lat="43.05" lon="3.04789">
        <ele>18.18</ele>
        <time>2012-03-04T10:16:33Z</time>
      </trkpt>
      <trkpt lat="43.05005" lon="3.04776">
        <ele>17.98</ele>
        <time>2012-03-04T10:16:42Z</time>
      </trkpt>
      <trkpt lat="43.05008" lon="3.0477">
        <ele>17.94</ele>
        <time>2012-03-04T10:16:47Z</time>
      </trkpt>
      <trkpt lat="43.05014" lon="3.04759">
        <ele>16.948</ele>
        <time>2012-03-04T10:16:55Z</time>
      </trkpt>
      <trkpt lat="43.05018" lon="3.0475">
        <ele>17.108</ele>
        <time>2012-03-04T10:17:02Z</time>
      </trkpt>
      <trkpt lat="43.05022" lon="3.04744">
        <ele>19.71</ele>
        <time>2012-03-04T10:17:14Z</time>
      </trkpt>
      <trkpt lat="43.05027" lon="3.04736">
        <ele>19.389</ele>
        <time>2012-03-04T10:17:20Z</time>
      </trkpt>
      <trkpt lat="43.05029" lon="3.0473">
        <ele>18.029</ele>
        <time>2012-03-04T10:17:24Z</time>
      </trkpt>
      <trkpt lat="43.05031" lon="3.04729">
        <ele>17.939</ele>
        <time>2012-03-04T10:17:26Z</time>
      </trkpt>
      <trkpt lat="43.05039" lon="3.0472">
        <ele>17.449</ele>
        <time>2012-03-04T10:17:35Z</time>
      </trkpt>
      <trkpt lat="43.05046" lon="3.0471">
        <ele>17.019</ele>
        <time>2012-03-04T10:17:42Z</time>
      </trkpt>
      <trkpt lat="43.0505" lon="3.04707">
        <ele>19.18</ele>
        <time>2012-03-04T10:17:46Z</time>
      </trkpt>
      <trkpt lat="43.05055" lon="3.04703">
        <ele>18.809</ele>
        <time>2012-03-04T10:17:50Z</time>
      </trkpt>
      <trkpt lat="43.05063" lon="3.04696">
        <ele>19.069</ele>
        <time>2012-03-04T10:17:57Z</time>
      </trkpt>
      <trkpt lat="43.05067" lon="3.0469">
        <ele>18.51</ele>
        <time>2012-03-04T10:18:02Z</time>
      </trkpt>
      <trkpt lat="43.05069" lon="3.04688">
        <ele>18.73</ele>
        <time>2012-03-04T10:18:04Z</time>
      </trkpt>
      <trkpt lat="43.05073" lon="3.04683">
        <ele>18.79</ele>
        <time>2012-03-04T10:18:08Z</time>
      </trkpt>
      <trkpt lat="43.05082" lon="3.04674">
        <ele>17.929</ele>
        <time>2012-03-04T10:18:17Z</time>
      </trkpt>
      <trkpt lat="43.05087" lon="3.0467">
        <ele>17.489</ele>
        <time>2012-03-04T10:18:26Z</time>
      </trkpt>
      <trkpt lat="43.05091" lon="3.04665">
        <ele>18.73</ele>
        <time>2012-03-04T10:18:47Z</time>
      </trkpt>
      <trkpt lat="43.05103" lon="3.04658">
        <ele>19.059</ele>
        <time>2012-03-04T10:18:57Z</time>
      </trkpt>
      <trkpt lat="43.05108" lon="3.04653">
        <ele>19.2</ele>
        <time>2012-03-04T10:19:02Z</time>
      </trkpt>
      <trkpt lat="43.0512" lon="3.04646">
        <ele>18.018</ele>
        <time>2012-03-04T10:19:12Z</time>
      </trkpt>
      <trkpt lat="43.05126" lon="3.04643">
        <ele>18.109</ele>
        <time>2012-03-04T10:19:18Z</time>
      </trkpt>
      <trkpt lat="43.0513" lon="3.0464">
        <ele>18.249</ele>
        <time>2012-03-04T10:19:23Z</time>
      </trkpt>
      <trkpt lat="43.05135" lon="3.04638">
        <ele>18.819</ele>
        <time>2012-03-04T10:19:28Z</time>
      </trkpt>
      <trkpt lat="43.05144" lon="3.04634">
        <ele>20.38</ele>
        <time>2012-03-04T10:19:35Z</time>
      </trkpt>
      <trkpt lat="43.05145" lon="3.04633">
        <ele>20.38</ele>
        <time>2012-03-04T10:19:36Z</time>
      </trkpt>
      <trkpt lat="43.05156" lon="3.04629">
        <ele>20.108</ele>
        <time>2012-03-04T10:19:44Z</time>
      </trkpt>
      <trkpt lat="43.05161" lon="3.04627">
        <ele>18.438</ele>
        <time>2012-03-04T10:19:48Z</time>
      </trkpt>
      <trkpt lat="43.05163" lon="3.04626">
        <ele>17.038</ele>
        <time>2012-03-04T10:19:51Z</time>
      </trkpt>
      <trkpt lat="43.05175" lon="3.04623">
        <ele>18.75</ele>
        <time>2012-03-04T10:20:00Z</time>
      </trkpt>
      <trkpt lat="43.05184" lon="3.04622">
        <ele>17.699</ele>
        <time>2012-03-04T10:20:08Z</time>
      </trkpt>
      <trkpt lat="43.05193" lon="3.04619">
        <ele>17.369</ele>
        <time>2012-03-04T10:20:15Z</time>
      </trkpt>
      <trkpt lat="43.05204" lon="3.04617">
        <ele>18.098</ele>
        <time>2012-03-04T10:20:23Z</time>
      </trkpt>
      <trkpt lat="43.05213" lon="3.04614">
        <ele>15.967</ele>
        <time>2012-03-04T10:20:31Z</time>
      </trkpt>
      <trkpt lat="43.05224" lon="3.04614">
        <ele>16.489</ele>
        <time>2012-03-04T10:20:40Z</time>
      </trkpt>
      <trkpt lat="43.05235" lon="3.04613">
        <ele>16.58</ele>
        <time>2012-03-04T10:20:49Z</time>
      </trkpt>
      <trkpt lat="43.05243" lon="3.04612">
        <ele>14.289</ele>
        <time>2012-03-04T10:20:57Z</time>
      </trkpt>
      <trkpt lat="43.05253" lon="3.04611">
        <ele>15.07</ele>
        <time>2012-03-04T10:21:04Z</time>
      </trkpt>
      <trkpt lat="43.05262" lon="3.04611">
        <ele>14.5</ele>
        <time>2012-03-04T10:21:12Z</time>
      </trkpt>
      <trkpt lat="43.05273" lon="3.0461">
        <ele>16.04</ele>
        <time>2012-03-04T10:21:19Z</time>
      </trkpt>
      <trkpt lat="43.05285" lon="3.0461">
        <ele>17.58</ele>
        <time>2012-03-04T10:21:27Z</time>
      </trkpt>
      <trkpt lat="43.0529" lon="3.04611">
        <ele>15.649</ele>
        <time>2012-03-04T10:21:32Z</time>
      </trkpt>
      <trkpt lat="43.05298" lon="3.04612">
        <ele>14.289</ele>
        <time>2012-03-04T10:21:38Z</time>
      </trkpt>
      <trkpt lat="43.05305" lon="3.04611">
        <ele>14.862</ele>
        <time>2012-03-04T10:21:44Z</time>
      </trkpt>
      <trkpt lat="43.05313" lon="3.04607">
        <ele>14.42</ele>
        <time>2012-03-04T10:21:51Z</time>
      </trkpt>
      <trkpt lat="43.05322" lon="3.04598">
        <ele>14.701</ele>
        <time>2012-03-04T10:22:01Z</time>
      </trkpt>
      <trkpt lat="43.05326" lon="3.04595">
        <ele>15.08</ele>
        <time>2012-03-04T10:22:09Z</time>
      </trkpt>
      <trkpt lat="43.05329" lon="3.04591">
        <ele>13.889</ele>
        <time>2012-03-04T10:22:17Z</time>
      </trkpt>
      <trkpt lat="43.05335" lon="3.04585">
        <ele>14.74</ele>
        <time>2012-03-04T10:22:24Z</time>
      </trkpt>
      <trkpt lat="43.0534" lon="3.04581">
        <ele>14.9</ele>
        <time>2012-03-04T10:22:31Z</time>
      </trkpt>
      <trkpt lat="43.05347" lon="3.04574">
        <ele>16.58</ele>
        <time>2012-03-04T10:22:38Z</time>
      </trkpt>
      <trkpt lat="43.05352" lon="3.04569">
        <ele>17.21</ele>
        <time>2012-03-04T10:22:44Z</time>
      </trkpt>
      <trkpt lat="43.05357" lon="3.04564">
        <ele>17.68</ele>
        <time>2012-03-04T10:22:50Z</time>
      </trkpt>
      <trkpt lat="43.05364" lon="3.04558">
        <ele>16.52</ele>
        <time>2012-03-04T10:22:58Z</time>
      </trkpt>
      <trkpt lat="43.05368" lon="3.04552">
        <ele>15.66</ele>
        <time>2012-03-04T10:23:05Z</time>
      </trkpt>
      <trkpt lat="43.0537" lon="3.04549">
        <ele>15.219</ele>
        <time>2012-03-04T10:23:07Z</time>
      </trkpt>
      <trkpt lat="43.05371" lon="3.04546">
        <ele>13.929</ele>
        <time>2012-03-04T10:23:09Z</time>
      </trkpt>
      <trkpt lat="43.05377" lon="3.04536">
        <ele>10.698</ele>
        <time>2012-03-04T10:23:17Z</time>
      </trkpt>
      <trkpt lat="43.05386" lon="3.04527">
        <ele>8.629</ele>
        <time>2012-03-04T10:23:26Z</time>
      </trkpt>
      <trkpt lat="43.05393" lon="3.04519">
        <ele>4.518</ele>
        <time>2012-03-04T10:23:35Z</time>
      </trkpt>
      <trkpt lat="43.05405" lon="3.04511">
        <ele>5.789</ele>
        <time>2012-03-04T10:23:44Z</time>
      </trkpt>
      <trkpt lat="43.05411" lon="3.04506">
        <ele>5.029</ele>
        <time>2012-03-04T10:23:51Z</time>
      </trkpt>
      <trkpt lat="43.0542" lon="3.04498">
        <ele>10.351</ele>
        <time>2012-03-04T10:23:58Z</time>
      </trkpt>
      <trkpt lat="43.05428" lon="3.04492">
        <ele>11.821</ele>
        <time>2012-03-04T10:24:04Z</time>
      </trkpt>
      <trkpt lat="43.0544" lon="3.0448">
        <ele>15.35</ele>
        <time>2012-03-04T10:24:15Z</time>
      </trkpt>
      <trkpt lat="43.0544" lon="3.04477">
        <ele>14.54</ele>
        <time>2012-03-04T10:24:17Z</time>
      </trkpt>
      <trkpt lat="43.05447" lon="3.0447">
        <ele>14.34</ele>
        <time>2012-03-04T10:24:25Z</time>
      </trkpt>
      <trkpt lat="43.05458" lon="3.04458">
        <ele>15.71</ele>
        <time>2012-03-04T10:24:36Z</time>
      </trkpt>
      <trkpt lat="43.05468" lon="3.0445">
        <ele>15.25</ele>
        <time>2012-03-04T10:24:45Z</time>
      </trkpt>
      <trkpt lat="43.05478" lon="3.0444">
        <ele>15.04</ele>
        <time>2012-03-04T10:24:55Z</time>
      </trkpt>
      <trkpt lat="43.05488" lon="3.04429">
        <ele>15.49</ele>
        <time>2012-03-04T10:25:05Z</time>
      </trkpt>
      <trkpt lat="43.05494" lon="3.04419">
        <ele>19.99</ele>
        <time>2012-03-04T10:25:13Z</time>
      </trkpt>
      <trkpt lat="43.05494" lon="3.04413">
        <ele>19.07</ele>
        <time>2012-03-04T10:25:20Z</time>
      </trkpt>
      <trkpt lat="43.05494" lon="3.04407">
        <ele>20.01</ele>
        <time>2012-03-04T10:25:25Z</time>
      </trkpt>
      <trkpt lat="43.05492" lon="3.04403">
        <ele>21.311</ele>
        <time>2012-03-04T10:25:31Z</time>
      </trkpt>
      <trkpt lat="43.05493" lon="3.04398">
        <ele>23.931</ele>
        <time>2012-03-04T10:25:46Z</time>
      </trkpt>
      <trkpt lat="43.05496" lon="3.04393">
        <ele>22.87</ele>
        <time>2012-03-04T10:25:55Z</time>
      </trkpt>
      <trkpt lat="43.05494" lon="3.04396">
        <ele>22.21</ele>
        <time>2012-03-04T10:26:01Z</time>
      </trkpt>
      <trkpt lat="43.05494" lon="3.04396">
        <ele>22.54</ele>
        <time>2012-03-04T10:26:05Z</time>
      </trkpt>
      <trkpt lat="43.05496" lon="3.04387">
        <ele>23.301</ele>
        <time>2012-03-04T10:26:11Z</time>
      </trkpt>
      <trkpt lat="43.05501" lon="3.04381">
        <ele>23.31</ele>
        <time>2012-03-04T10:26:16Z</time>
      </trkpt>
      <trkpt lat="43.05502" lon="3.04376">
        <ele>20.549</ele>
        <time>2012-03-04T10:26:22Z</time>
      </trkpt>
      <trkpt lat="43.05504" lon="3.04376">
        <ele>18.428</ele>
        <time>2012-03-04T10:26:24Z</time>
      </trkpt>
      <trkpt lat="43.05505" lon="3.04377">
        <ele>17.768</ele>
        <time>2012-03-04T10:26:26Z</time>
      </trkpt>
      <trkpt lat="43.05512" lon="3.04377">
        <ele>18.03</ele>
        <time>2012-03-04T10:26:32Z</time>
      </trkpt>
      <trkpt lat="43.05517" lon="3.04374">
        <ele>16.8</ele>
        <time>2012-03-04T10:26:38Z</time>
      </trkpt>
      <trkpt lat="43.05524" lon="3.0437">
        <ele>14.249</ele>
        <time>2012-03-04T10:26:45Z</time>
      </trkpt>
      <trkpt lat="43.05528" lon="3.04365">
        <ele>10.878</ele>
        <time>2012-03-04T10:26:53Z</time>
      </trkpt>
      <trkpt lat="43.0553" lon="3.04362">
        <ele>8.527</ele>
        <time>2012-03-04T10:27:02Z</time>
      </trkpt>
      <trkpt lat="43.05536" lon="3.04358">
        <ele>17.822</ele>
        <time>2012-03-04T10:27:23Z</time>
      </trkpt>
      <trkpt lat="43.05534" lon="3.04356">
        <ele>17.331</ele>
        <time>2012-03-04T10:27:34Z</time>
      </trkpt>
      <trkpt lat="43.05535" lon="3.04354">
        <ele>13.218</ele>
        <time>2012-03-04T10:27:41Z</time>
      </trkpt>
      <trkpt lat="43.05538" lon="3.04349">
        <ele>11.418</ele>
        <time>2012-03-04T10:27:48Z</time>
      </trkpt>
      <trkpt lat="43.0554" lon="3.04343">
        <ele>10.109</ele>
        <time>2012-03-04T10:27:57Z</time>
      </trkpt>
      <trkpt lat="43.05542" lon="3.04337">
        <ele>8.379</ele>
        <time>2012-03-04T10:28:07Z</time>
      </trkpt>
      <trkpt lat="43.05544" lon="3.0433">
        <ele>11.121</ele>
        <time>2012-03-04T10:28:14Z</time>
      </trkpt>
      <trkpt lat="43.05547" lon="3.04327">
        <ele>16.39</ele>
        <time>2012-03-04T10:28:28Z</time>
      </trkpt>
      <trkpt lat="43.05546" lon="3.04322">
        <ele>16.87</ele>
        <time>2012-03-04T10:28:31Z</time>
      </trkpt>
      <trkpt lat="43.05546" lon="3.04315">
        <ele>18.511</ele>
        <time>2012-03-04T10:28:36Z</time>
      </trkpt>
      <trkpt lat="43.05546" lon="3.04306">
        <ele>21.2</ele>
        <time>2012-03-04T10:28:44Z</time>
      </trkpt>
      <trkpt lat="43.05543" lon="3.04297">
        <ele>16.169</ele>
        <time>2012-03-04T10:28:52Z</time>
      </trkpt>
      <trkpt lat="43.05546" lon="3.04293">
        <ele>16.6</ele>
        <time>2012-03-04T10:28:58Z</time>
      </trkpt>
      <trkpt lat="43.05543" lon="3.04289">
        <ele>9.749</ele>
        <time>2012-03-04T10:29:30Z</time>
      </trkpt>
      <trkpt lat="43.05546" lon="3.04293">
        <ele>5.28</ele>
        <time>2012-03-04T10:30:00Z</time>
      </trkpt>
      <trkpt lat="43.05544" lon="3.04292">
        <ele>8.281</ele>
        <time>2012-03-04T10:30:07Z</time>
      </trkpt>
      <trkpt lat="43.05544" lon="3.0429">
        <ele>8.521</ele>
        <time>2012-03-04T10:30:10Z</time>
      </trkpt>
      <trkpt lat="43.05542" lon="3.04281">
        <ele>17.283</ele>
        <time>2012-03-04T10:30:17Z</time>
      </trkpt>
      <trkpt lat="43.05539" lon="3.0427">
        <ele>19.832</ele>
        <time>2012-03-04T10:30:25Z</time>
      </trkpt>
      <trkpt lat="43.05535" lon="3.04261">
        <ele>23.422</ele>
        <time>2012-03-04T10:30:33Z</time>
      </trkpt>
      <trkpt lat="43.05534" lon="3.04252">
        <ele>25.313</ele>
        <time>2012-03-04T10:30:40Z</time>
      </trkpt>
      <trkpt lat="43.0553" lon="3.04248">
        <ele>21.729</ele>
        <time>2012-03-04T10:30:51Z</time>
      </trkpt>
      <trkpt lat="43.05529" lon="3.04241">
        <ele>25.14</ele>
        <time>2012-03-04T10:30:58Z</time>
      </trkpt>
      <trkpt lat="43.05527" lon="3.04237">
        <ele>27.111</ele>
        <time>2012-03-04T10:31:08Z</time>
      </trkpt>
      <trkpt lat="43.05527" lon="3.0423">
        <ele>26.45</ele>
        <time>2012-03-04T10:31:15Z</time>
      </trkpt>
      <trkpt lat="43.05525" lon="3.04222">
        <ele>23.909</ele>
        <time>2012-03-04T10:31:21Z</time>
      </trkpt>
      <trkpt lat="43.05524" lon="3.04214">
        <ele>20.208</ele>
        <time>2012-03-04T10:31:28Z</time>
      </trkpt>
      <trkpt lat="43.05524" lon="3.04208">
        <ele>16.937</ele>
        <time>2012-03-04T10:31:34Z</time>
      </trkpt>
      <trkpt lat="43.05525" lon="3.04198">
        <ele>17.658</ele>
        <time>2012-03-04T10:31:41Z</time>
      </trkpt>
      <trkpt lat="43.05523" lon="3.04185">
        <ele>17.198</ele>
        <time>2012-03-04T10:31:48Z</time>
      </trkpt>
      <trkpt lat="43.0552" lon="3.04169">
        <ele>14.957</ele>
        <time>2012-03-04T10:31:56Z</time>
      </trkpt>
      <trkpt lat="43.05521" lon="3.04156">
        <ele>13.068</ele>
        <time>2012-03-04T10:32:04Z</time>
      </trkpt>
      <trkpt lat="43.0552" lon="3.04146">
        <ele>5.106</ele>
        <time>2012-03-04T10:32:10Z</time>
      </trkpt>
      <trkpt lat="43.05522" lon="3.04142">
        <ele>8.018</ele>
        <time>2012-03-04T10:32:13Z</time>
      </trkpt>
      <trkpt lat="43.05529" lon="3.04126">
        <ele>14.219</ele>
        <time>2012-03-04T10:32:23Z</time>
      </trkpt>
      <trkpt lat="43.05531" lon="3.04117">
        <ele>12.798</ele>
        <time>2012-03-04T10:32:29Z</time>
      </trkpt>
      <trkpt lat="43.05535" lon="3.04106">
        <ele>9.837</ele>
        <time>2012-03-04T10:32:37Z</time>
      </trkpt>
      <trkpt lat="43.05538" lon="3.04099">
        <ele>7.157</ele>
        <time>2012-03-04T10:32:43Z</time>
      </trkpt>
      <trkpt lat="43.05544" lon="3.0409">
        <ele>4.298</ele>
        <time>2012-03-04T10:32:50Z</time>
      </trkpt>
      <trkpt lat="43.05549" lon="3.04084">
        <ele>3.298</ele>
        <time>2012-03-04T10:32:57Z</time>
      </trkpt>
      <trkpt lat="43.05558" lon="3.04074">
        <ele>6.559</ele>
        <time>2012-03-04T10:33:06Z</time>
      </trkpt>
      <trkpt lat="43.05569" lon="3.04066">
        <ele>8.229</ele>
        <time>2012-03-04T10:33:15Z</time>
      </trkpt>
      <trkpt lat="43.05577" lon="3.04055">
        <ele>8.62</ele>
        <time>2012-03-04T10:33:24Z</time>
      </trkpt>
      <trkpt lat="43.05583" lon="3.04048">
        <ele>5.568</ele>
        <time>2012-03-04T10:33:32Z</time>
      </trkpt>
      <trkpt lat="43.05595" lon="3.04037">
        <ele>5.539</ele>
        <time>2012-03-04T10:33:42Z</time>
      </trkpt>
      <trkpt lat="43.05601" lon="3.04028">
        <ele>10.111</ele>
        <time>2012-03-04T10:33:49Z</time>
      </trkpt>
      <trkpt lat="43.05609" lon="3.04019">
        <ele>10.22</ele>
        <time>2012-03-04T10:33:57Z</time>
      </trkpt>
      <trkpt lat="43.05617" lon="3.04009">
        <ele>12.41</ele>
        <time>2012-03-04T10:34:05Z</time>
      </trkpt>
      <trkpt lat="43.05624" lon="3.03999">
        <ele>14.221</ele>
        <time>2012-03-04T10:34:13Z</time>
      </trkpt>
      <trkpt lat="43.05636" lon="3.0399">
        <ele>12.47</ele>
        <time>2012-03-04T10:34:24Z</time>
      </trkpt>
      <trkpt lat="43.05643" lon="3.03981">
        <ele>10.429</ele>
        <time>2012-03-04T10:34:32Z</time>
      </trkpt>
      <trkpt lat="43.05649" lon="3.03974">
        <ele>11</ele>
        <time>2012-03-04T10:34:39Z</time>
      </trkpt>
      <trkpt lat="43.0566" lon="3.03966">
        <ele>16.742</ele>
        <time>2012-03-04T10:34:48Z</time>
      </trkpt>
      <trkpt lat="43.05667" lon="3.03961">
        <ele>21.1</ele>
        <time>2012-03-04T10:34:56Z</time>
      </trkpt>
      <trkpt lat="43.05676" lon="3.03955">
        <ele>20.689</ele>
        <time>2012-03-04T10:35:04Z</time>
      </trkpt>
      <trkpt lat="43.05683" lon="3.03953">
        <ele>19.48</ele>
        <time>2012-03-04T10:35:10Z</time>
      </trkpt>
      <trkpt lat="43.05684" lon="3.03953">
        <ele>20.37</ele>
        <time>2012-03-04T10:35:13Z</time>
      </trkpt>
      <trkpt lat="43.05686" lon="3.0395">
        <ele>21.161</ele>
        <time>2012-03-04T10:35:15Z</time>
      </trkpt>
      <trkpt lat="43.05693" lon="3.03947">
        <ele>23.17</ele>
        <time>2012-03-04T10:35:21Z</time>
      </trkpt>
      <trkpt lat="43.05699" lon="3.03946">
        <ele>22.19</ele>
        <time>2012-03-04T10:35:26Z</time>
      </trkpt>
      <trkpt lat="43.05701" lon="3.03945">
        <ele>22.15</ele>
        <time>2012-03-04T10:35:28Z</time>
      </trkpt>
      <trkpt lat="43.05714" lon="3.03941">
        <ele>20.82</ele>
        <time>2012-03-04T10:35:39Z</time>
      </trkpt>
      <trkpt lat="43.05725" lon="3.03934">
        <ele>20.379</ele>
        <time>2012-03-04T10:35:49Z</time>
      </trkpt>
      <trkpt lat="43.05732" lon="3.0393">
        <ele>19.319</ele>
        <time>2012-03-04T10:35:55Z</time>
      </trkpt>
      <trkpt lat="43.05734" lon="3.03927">
        <ele>18.088</ele>
        <time>2012-03-04T10:35:58Z</time>
      </trkpt>
      <trkpt lat="43.05738" lon="3.03921">
        <ele>18.029</ele>
        <time>2012-03-04T10:36:03Z</time>
      </trkpt>
      <trkpt lat="43.05743" lon="3.03916">
        <ele>18.579</ele>
        <time>2012-03-04T10:36:08Z</time>
      </trkpt>
      <trkpt lat="43.05743" lon="3.03911">
        <ele>20.029</ele>
        <time>2012-03-04T10:36:14Z</time>
      </trkpt>
      <trkpt lat="43.05745" lon="3.0391">
        <ele>21.08</ele>
        <time>2012-03-04T10:36:31Z</time>
      </trkpt>
      <trkpt lat="43.05749" lon="3.03914">
        <ele>19.769</ele>
        <time>2012-03-04T10:36:37Z</time>
      </trkpt>
      <trkpt lat="43.05752" lon="3.03912">
        <ele>18.159</ele>
        <time>2012-03-04T10:36:41Z</time>
      </trkpt>
      <trkpt lat="43.05761" lon="3.03906">
        <ele>15.099</ele>
        <time>2012-03-04T10:36:51Z</time>
      </trkpt>
      <trkpt lat="43.05769" lon="3.03897">
        <ele>16.77</ele>
        <time>2012-03-04T10:37:01Z</time>
      </trkpt>
      <trkpt lat="43.05781" lon="3.0389">
        <ele>18.92</ele>
        <time>2012-03-04T10:37:11Z</time>
      </trkpt>
      <trkpt lat="43.05792" lon="3.03885">
        <ele>20.2</ele>
        <time>2012-03-04T10:37:21Z</time>
      </trkpt>
      <trkpt lat="43.05806" lon="3.03877">
        <ele>20.069</ele>
        <time>2012-03-04T10:37:33Z</time>
      </trkpt>
      <trkpt lat="43.0581" lon="3.03873">
        <ele>22.09</ele>
        <time>2012-03-04T10:37:39Z</time>
      </trkpt>
      <trkpt lat="43.05818" lon="3.03866">
        <ele>22.87</ele>
        <time>2012-03-04T10:37:47Z</time>
      </trkpt>
      <trkpt lat="43.0583" lon="3.03856">
        <ele>24.14</ele>
        <time>2012-03-04T10:37:59Z</time>
      </trkpt>
      <trkpt lat="43.0584" lon="3.03848">
        <ele>23.65</ele>
        <time>2012-03-04T10:38:08Z</time>
      </trkpt>
      <trkpt lat="43.05851" lon="3.03842">
        <ele>22.8</ele>
        <time>2012-03-04T10:38:18Z</time>
      </trkpt>
      <trkpt lat="43.05856" lon="3.03837">
        <ele>22.939</ele>
        <time>2012-03-04T10:38:23Z</time>
      </trkpt>
      <trkpt lat="43.05859" lon="3.03833">
        <ele>22.759</ele>
        <time>2012-03-04T10:38:27Z</time>
      </trkpt>
      <trkpt lat="43.05869" lon="3.03821">
        <ele>21.59</ele>
        <time>2012-03-04T10:38:38Z</time>
      </trkpt>
      <trkpt lat="43.05878" lon="3.03808">
        <ele>19.819</ele>
        <time>2012-03-04T10:38:50Z</time>
      </trkpt>
      <trkpt lat="43.05885" lon="3.03801">
        <ele>18.379</ele>
        <time>2012-03-04T10:38:58Z</time>
      </trkpt>
      <trkpt lat="43.05892" lon="3.03797">
        <ele>20.65</ele>
        <time>2012-03-04T10:39:05Z</time>
      </trkpt>
      <trkpt lat="43.05892" lon="3.03794">
        <ele>14.899</ele>
        <time>2012-03-04T10:39:14Z</time>
      </trkpt>
      <trkpt lat="43.0589" lon="3.03793">
        <ele>15.139</ele>
        <time>2012-03-04T10:39:16Z</time>
      </trkpt>
      <trkpt lat="43.0589" lon="3.03795">
        <ele>14.82</ele>
        <time>2012-03-04T10:39:22Z</time>
      </trkpt>
      <trkpt lat="43.05892" lon="3.03791">
        <ele>21.571</ele>
        <time>2012-03-04T10:39:34Z</time>
      </trkpt>
      <trkpt lat="43.05891" lon="3.03788">
        <ele>26.619</ele>
        <time>2012-03-04T10:40:14Z</time>
      </trkpt>
      <trkpt lat="43.05892" lon="3.03783">
        <ele>27.39</ele>
        <time>2012-03-04T10:40:18Z</time>
      </trkpt>
      <trkpt lat="43.05897" lon="3.03772">
        <ele>29.441</ele>
        <time>2012-03-04T10:40:26Z</time>
      </trkpt>
      <trkpt lat="43.05901" lon="3.03761">
        <ele>32.711</ele>
        <time>2012-03-04T10:40:34Z</time>
      </trkpt>
      <trkpt lat="43.05906" lon="3.03749">
        <ele>31.21</ele>
        <time>2012-03-04T10:40:44Z</time>
      </trkpt>
      <trkpt lat="43.0591" lon="3.03739">
        <ele>28.619</ele>
        <time>2012-03-04T10:40:52Z</time>
      </trkpt>
      <trkpt lat="43.05916" lon="3.03729">
        <ele>27.929</ele>
        <time>2012-03-04T10:41:00Z</time>
      </trkpt>
      <trkpt lat="43.05925" lon="3.03716">
        <ele>28.059</ele>
        <time>2012-03-04T10:41:12Z</time>
      </trkpt>
      <trkpt lat="43.05934" lon="3.03704">
        <ele>28.75</ele>
        <time>2012-03-04T10:41:22Z</time>
      </trkpt>
      <trkpt lat="43.05941" lon="3.03693">
        <ele>31.95</ele>
        <time>2012-03-04T10:41:30Z</time>
      </trkpt>
      <trkpt lat="43.05943" lon="3.03687">
        <ele>31.17</ele>
        <time>2012-03-04T10:41:34Z</time>
      </trkpt>
      <trkpt lat="43.05945" lon="3.03681">
        <ele>29.219</ele>
        <time>2012-03-04T10:41:38Z</time>
      </trkpt>
      <trkpt lat="43.05946" lon="3.03677">
        <ele>30.581</ele>
        <time>2012-03-04T10:41:40Z</time>
      </trkpt>
      <trkpt lat="43.05949" lon="3.03665">
        <ele>33.29</ele>
        <time>2012-03-04T10:41:46Z</time>
      </trkpt>
      <trkpt lat="43.05956" lon="3.03647">
        <ele>33.53</ele>
        <time>2012-03-04T10:41:59Z</time>
      </trkpt>
      <trkpt lat="43.05959" lon="3.0364">
        <ele>32.87</ele>
        <time>2012-03-04T10:42:04Z</time>
      </trkpt>
      <trkpt lat="43.05963" lon="3.03638">
        <ele>32.139</ele>
        <time>2012-03-04T10:42:09Z</time>
      </trkpt>
      <trkpt lat="43.05963" lon="3.03635">
        <ele>31.92</ele>
        <time>2012-03-04T10:42:14Z</time>
      </trkpt>
      <trkpt lat="43.05963" lon="3.03635">
        <ele>31.049</ele>
        <time>2012-03-04T10:42:22Z</time>
      </trkpt>
      <trkpt lat="43.05963" lon="3.03628">
        <ele>31.669</ele>
        <time>2012-03-04T10:42:26Z</time>
      </trkpt>
      <trkpt lat="43.05964" lon="3.03621">
        <ele>31.29</ele>
        <time>2012-03-04T10:42:34Z</time>
      </trkpt>
      <trkpt lat="43.05965" lon="3.03621">
        <ele>32.092</ele>
        <time>2012-03-04T10:42:43Z</time>
      </trkpt>
      <trkpt lat="43.05966" lon="3.0362">
        <ele>31.87</ele>
        <time>2012-03-04T10:42:45Z</time>
      </trkpt>
      <trkpt lat="43.05969" lon="3.03617">
        <ele>31.68</ele>
        <time>2012-03-04T10:42:49Z</time>
      </trkpt>
      <trkpt lat="43.05972" lon="3.03607">
        <ele>32.929</ele>
        <time>2012-03-04T10:42:55Z</time>
      </trkpt>
      <trkpt lat="43.05971" lon="3.03602">
        <ele>32.46</ele>
        <time>2012-03-04T10:42:57Z</time>
      </trkpt>
      <trkpt lat="43.05974" lon="3.03603">
        <ele>32.68</ele>
        <time>2012-03-04T10:43:01Z</time>
      </trkpt>
      <trkpt lat="43.05975" lon="3.03605">
        <ele>32.971</ele>
        <time>2012-03-04T10:43:03Z</time>
      </trkpt>
      <trkpt lat="43.05979" lon="3.03608">
        <ele>30.409</ele>
        <time>2012-03-04T10:43:09Z</time>
      </trkpt>
      <trkpt lat="43.05981" lon="3.03602">
        <ele>36.752</ele>
        <time>2012-03-04T10:43:16Z</time>
      </trkpt>
      <trkpt lat="43.05981" lon="3.03594">
        <ele>35.543</ele>
        <time>2012-03-04T10:43:24Z</time>
      </trkpt>
      <trkpt lat="43.05984" lon="3.03587">
        <ele>28.537</ele>
        <time>2012-03-04T10:43:35Z</time>
      </trkpt>
      <trkpt lat="43.05987" lon="3.03583">
        <ele>30.64</ele>
        <time>2012-03-04T10:43:42Z</time>
      </trkpt>
      <trkpt lat="43.05984" lon="3.0358">
        <ele>32.211</ele>
        <time>2012-03-04T10:43:48Z</time>
      </trkpt>
      <trkpt lat="43.0598" lon="3.03579">
        <ele>30.539</ele>
        <time>2012-03-04T10:43:52Z</time>
      </trkpt>
      <trkpt lat="43.05977" lon="3.03572">
        <ele>31.256</ele>
        <time>2012-03-04T10:43:59Z</time>
      </trkpt>
      <trkpt lat="43.05974" lon="3.03566">
        <ele>31.57</ele>
        <time>2012-03-04T10:44:07Z</time>
      </trkpt>
      <trkpt lat="43.05974" lon="3.03564">
        <ele>30.98</ele>
        <time>2012-03-04T10:44:10Z</time>
      </trkpt>
      <trkpt lat="43.05972" lon="3.03559">
        <ele>30.91</ele>
        <time>2012-03-04T10:44:15Z</time>
      </trkpt>
      <trkpt lat="43.05976" lon="3.03553">
        <ele>31.61</ele>
        <time>2012-03-04T10:44:21Z</time>
      </trkpt>
      <trkpt lat="43.05981" lon="3.03552">
        <ele>31.55</ele>
        <time>2012-03-04T10:44:30Z</time>
      </trkpt>
      <trkpt lat="43.05986" lon="3.03551">
        <ele>31.419</ele>
        <time>2012-03-04T10:44:43Z</time>
      </trkpt>
      <trkpt lat="43.05995" lon="3.03547">
        <ele>31.28</ele>
        <time>2012-03-04T10:44:53Z</time>
      </trkpt>
      <trkpt lat="43.06001" lon="3.03539">
        <ele>30.799</ele>
        <time>2012-03-04T10:45:01Z</time>
      </trkpt>
      <trkpt lat="43.06005" lon="3.03531">
        <ele>29.149</ele>
        <time>2012-03-04T10:45:07Z</time>
      </trkpt>
      <trkpt lat="43.06004" lon="3.03525">
        <ele>27.59</ele>
        <time>2012-03-04T10:45:12Z</time>
      </trkpt>
      <trkpt lat="43.06003" lon="3.03524">
        <ele>27.95</ele>
        <time>2012-03-04T10:45:19Z</time>
      </trkpt>
      <trkpt lat="43.06004" lon="3.03524">
        <ele>28.069</ele>
        <time>2012-03-04T10:45:24Z</time>
      </trkpt>
      <trkpt lat="43.06004" lon="3.03521">
        <ele>27.538</ele>
        <time>2012-03-04T10:45:27Z</time>
      </trkpt>
      <trkpt lat="43.06003" lon="3.03514">
        <ele>25.459</ele>
        <time>2012-03-04T10:45:34Z</time>
      </trkpt>
      <trkpt lat="43.06005" lon="3.03511">
        <ele>27.022</ele>
        <time>2012-03-04T10:45:51Z</time>
      </trkpt>
      <trkpt lat="43.06013" lon="3.03508">
        <ele>26.93</ele>
        <time>2012-03-04T10:45:59Z</time>
      </trkpt>
      <trkpt lat="43.06015" lon="3.03506">
        <ele>27.29</ele>
        <time>2012-03-04T10:46:04Z</time>
      </trkpt>
      <trkpt lat="43.06015" lon="3.03505">
        <ele>26.619</ele>
        <time>2012-03-04T10:46:08Z</time>
      </trkpt>
      <trkpt lat="43.06021" lon="3.03497">
        <ele>26.709</ele>
        <time>2012-03-04T10:46:16Z</time>
      </trkpt>
      <trkpt lat="43.06025" lon="3.035">
        <ele>26.825</ele>
        <time>2012-03-04T10:46:22Z</time>
      </trkpt>
      <trkpt lat="43.06025" lon="3.03503">
        <ele>28.33</ele>
        <time>2012-03-04T10:46:31Z</time>
      </trkpt>
      <trkpt lat="43.06025" lon="3.03504">
        <ele>28.38</ele>
        <time>2012-03-04T10:46:44Z</time>
      </trkpt>
      <trkpt lat="43.06024" lon="3.03494">
        <ele>30.206</ele>
        <time>2012-03-04T10:46:51Z</time>
      </trkpt>
      <trkpt lat="43.06026" lon="3.0349">
        <ele>30.863</ele>
        <time>2012-03-04T10:46:54Z</time>
      </trkpt>
      <trkpt lat="43.06031" lon="3.03475">
        <ele>33.201</ele>
        <time>2012-03-04T10:47:05Z</time>
      </trkpt>
      <trkpt lat="43.06035" lon="3.03463">
        <ele>32.2</ele>
        <time>2012-03-04T10:47:14Z</time>
      </trkpt>
      <trkpt lat="43.06037" lon="3.03458">
        <ele>32.429</ele>
        <time>2012-03-04T10:47:19Z</time>
      </trkpt>
      <trkpt lat="43.06042" lon="3.0344">
        <ele>25.539</ele>
        <time>2012-03-04T10:47:29Z</time>
      </trkpt>
      <trkpt lat="43.06043" lon="3.03439">
        <ele>25.969</ele>
        <time>2012-03-04T10:47:30Z</time>
      </trkpt>
      <trkpt lat="43.06049" lon="3.03431">
        <ele>29.14</ele>
        <time>2012-03-04T10:47:38Z</time>
      </trkpt>
      <trkpt lat="43.06054" lon="3.0343">
        <ele>17.373</ele>
        <time>2012-03-04T10:47:57Z</time>
      </trkpt>
      <trkpt lat="43.06055" lon="3.0342">
        <ele>21.971</ele>
        <time>2012-03-04T10:48:05Z</time>
      </trkpt>
      <trkpt lat="43.06058" lon="3.03411">
        <ele>27.832</ele>
        <time>2012-03-04T10:48:13Z</time>
      </trkpt>
      <trkpt lat="43.06063" lon="3.03401">
        <ele>33.48</ele>
        <time>2012-03-04T10:48:21Z</time>
      </trkpt>
      <trkpt lat="43.06067" lon="3.0339">
        <ele>38.762</ele>
        <time>2012-03-04T10:48:28Z</time>
      </trkpt>
      <trkpt lat="43.06067" lon="3.03389">
        <ele>39.962</ele>
        <time>2012-03-04T10:48:30Z</time>
      </trkpt>
      <trkpt lat="43.06066" lon="3.03368">
        <ele>24.868</ele>
        <time>2012-03-04T10:48:42Z</time>
      </trkpt>
      <trkpt lat="43.06066" lon="3.03356">
        <ele>22.977</ele>
        <time>2012-03-04T10:48:50Z</time>
      </trkpt>
      <trkpt lat="43.06066" lon="3.03338">
        <ele>18.078</ele>
        <time>2012-03-04T10:49:00Z</time>
      </trkpt>
      <trkpt lat="43.06066" lon="3.03326">
        <ele>16.288</ele>
        <time>2012-03-04T10:49:08Z</time>
      </trkpt>
      <trkpt lat="43.06068" lon="3.03321">
        <ele>18.169</ele>
        <time>2012-03-04T10:49:12Z</time>
      </trkpt>
      <trkpt lat="43.0607" lon="3.03302">
        <ele>26.329</ele>
        <time>2012-03-04T10:49:23Z</time>
      </trkpt>
      <trkpt lat="43.06074" lon="3.03286">
        <ele>34.791</ele>
        <time>2012-03-04T10:49:31Z</time>
      </trkpt>
      <trkpt lat="43.06078" lon="3.03269">
        <ele>44.703</ele>
        <time>2012-03-04T10:49:40Z</time>
      </trkpt>
      <trkpt lat="43.06084" lon="3.03258">
        <ele>47.201</ele>
        <time>2012-03-04T10:49:49Z</time>
      </trkpt>
      <trkpt lat="43.06089" lon="3.03247">
        <ele>46.27</ele>
        <time>2012-03-04T10:49:56Z</time>
      </trkpt>
      <trkpt lat="43.06091" lon="3.03242">
        <ele>45.65</ele>
        <time>2012-03-04T10:50:00Z</time>
      </trkpt>
      <trkpt lat="43.06094" lon="3.0323">
        <ele>43.82</ele>
        <time>2012-03-04T10:50:08Z</time>
      </trkpt>
      <trkpt lat="43.06098" lon="3.0322">
        <ele>41.259</ele>
        <time>2012-03-04T10:50:17Z</time>
      </trkpt>
      <trkpt lat="43.06103" lon="3.0321">
        <ele>41.9</ele>
        <time>2012-03-04T10:50:26Z</time>
      </trkpt>
      <trkpt lat="43.06106" lon="3.03201">
        <ele>39.69</ele>
        <time>2012-03-04T10:50:33Z</time>
      </trkpt>
      <trkpt lat="43.06112" lon="3.03192">
        <ele>39.919</ele>
        <time>2012-03-04T10:50:40Z</time>
      </trkpt>
      <trkpt lat="43.06117" lon="3.03193">
        <ele>36.949</ele>
        <time>2012-03-04T10:50:48Z</time>
      </trkpt>
      <trkpt lat="43.06118" lon="3.03197">
        <ele>30.778</ele>
        <time>2012-03-04T10:50:58Z</time>
      </trkpt>
      <trkpt lat="43.06118" lon="3.03193">
        <ele>33.101</ele>
        <time>2012-03-04T10:51:16Z</time>
      </trkpt>
      <trkpt lat="43.06122" lon="3.03196">
        <ele>36.109</ele>
        <time>2012-03-04T10:51:46Z</time>
      </trkpt>
      <trkpt lat="43.06121" lon="3.03191">
        <ele>31.578</ele>
        <time>2012-03-04T10:52:32Z</time>
      </trkpt>
      <trkpt lat="43.06118" lon="3.03189">
        <ele>35.282</ele>
        <time>2012-03-04T10:52:38Z</time>
      </trkpt>
      <trkpt lat="43.06117" lon="3.03189">
        <ele>35.816</ele>
        <time>2012-03-04T10:52:39Z</time>
      </trkpt>
      <trkpt lat="43.06115" lon="3.03187">
        <ele>35.927</ele>
        <time>2012-03-04T10:52:41Z</time>
      </trkpt>
      <trkpt lat="43.06114" lon="3.03179">
        <ele>37.921</ele>
        <time>2012-03-04T10:52:50Z</time>
      </trkpt>
      <trkpt lat="43.06114" lon="3.0317">
        <ele>38.431</ele>
        <time>2012-03-04T10:53:07Z</time>
      </trkpt>
      <trkpt lat="43.06116" lon="3.0316">
        <ele>39.672</ele>
        <time>2012-03-04T10:53:14Z</time>
      </trkpt>
      <trkpt lat="43.06117" lon="3.03147">
        <ele>39.489</ele>
        <time>2012-03-04T10:53:22Z</time>
      </trkpt>
      <trkpt lat="43.06119" lon="3.03135">
        <ele>38.751</ele>
        <time>2012-03-04T10:53:30Z</time>
      </trkpt>
      <trkpt lat="43.06119" lon="3.03123">
        <ele>36.824</ele>
        <time>2012-03-04T10:53:37Z</time>
      </trkpt>
      <trkpt lat="43.06121" lon="3.03112">
        <ele>37.008</ele>
        <time>2012-03-04T10:53:44Z</time>
      </trkpt>
      <trkpt lat="43.06124" lon="3.03097">
        <ele>38.402</ele>
        <time>2012-03-04T10:53:52Z</time>
      </trkpt>
      <trkpt lat="43.06124" lon="3.03096">
        <ele>38.312</ele>
        <time>2012-03-04T10:53:53Z</time>
      </trkpt>
      <trkpt lat="43.06125" lon="3.03097">
        <ele>36.759</ele>
        <time>2012-03-04T10:54:00Z</time>
      </trkpt>
      <trkpt lat="43.06124" lon="3.03097">
        <ele>36.496</ele>
        <time>2012-03-04T10:54:02Z</time>
      </trkpt>
      <trkpt lat="43.06124" lon="3.03094">
        <ele>36.294</ele>
        <time>2012-03-04T10:54:06Z</time>
      </trkpt>
      <trkpt lat="43.06123" lon="3.03086">
        <ele>39.085</ele>
        <time>2012-03-04T10:54:11Z</time>
      </trkpt>
      <trkpt lat="43.06123" lon="3.03075">
        <ele>39.954</ele>
        <time>2012-03-04T10:54:18Z</time>
      </trkpt>
      <trkpt lat="43.06123" lon="3.03068">
        <ele>38.985</ele>
        <time>2012-03-04T10:54:24Z</time>
      </trkpt>
      <trkpt lat="43.06126" lon="3.03067">
        <ele>38.418</ele>
        <time>2012-03-04T10:54:30Z</time>
      </trkpt>
      <trkpt lat="43.06123" lon="3.03068">
        <ele>38.259</ele>
        <time>2012-03-04T10:55:43Z</time>
      </trkpt>
      <trkpt lat="43.06118" lon="3.03066">
        <ele>37.789</ele>
        <time>2012-03-04T10:55:50Z</time>
      </trkpt>
      <trkpt lat="43.06112" lon="3.03063">
        <ele>38.259</ele>
        <time>2012-03-04T10:55:57Z</time>
      </trkpt>
      <trkpt lat="43.06106" lon="3.03057">
        <ele>38.999</ele>
        <time>2012-03-04T10:56:05Z</time>
      </trkpt>
      <trkpt lat="43.06097" lon="3.03048">
        <ele>39.289</ele>
        <time>2012-03-04T10:56:15Z</time>
      </trkpt>
      <trkpt lat="43.06089" lon="3.03041">
        <ele>39.859</ele>
        <time>2012-03-04T10:56:24Z</time>
      </trkpt>
      <trkpt lat="43.06087" lon="3.03039">
        <ele>39.079</ele>
        <time>2012-03-04T10:56:29Z</time>
      </trkpt>
      <trkpt lat="43.06081" lon="3.03034">
        <ele>37.688</ele>
        <time>2012-03-04T10:56:35Z</time>
      </trkpt>
      <trkpt lat="43.06075" lon="3.03029">
        <ele>37.158</ele>
        <time>2012-03-04T10:56:42Z</time>
      </trkpt>
      <trkpt lat="43.06069" lon="3.03025">
        <ele>37.719</ele>
        <time>2012-03-04T10:56:50Z</time>
      </trkpt>
      <trkpt lat="43.06069" lon="3.03024">
        <ele>38.049</ele>
        <time>2012-03-04T10:56:51Z</time>
      </trkpt>
      <trkpt lat="43.06062" lon="3.03017">
        <ele>39.13</ele>
        <time>2012-03-04T10:56:57Z</time>
      </trkpt>
      <trkpt lat="43.06055" lon="3.03008">
        <ele>38.518</ele>
        <time>2012-03-04T10:57:06Z</time>
      </trkpt>
      <trkpt lat="43.06046" lon="3.02999">
        <ele>38.369</ele>
        <time>2012-03-04T10:57:14Z</time>
      </trkpt>
      <trkpt lat="43.06038" lon="3.02996">
        <ele>40.04</ele>
        <time>2012-03-04T10:57:21Z</time>
      </trkpt>
      <trkpt lat="43.0603" lon="3.02989">
        <ele>40.569</ele>
        <time>2012-03-04T10:57:28Z</time>
      </trkpt>
      <trkpt lat="43.06023" lon="3.02984">
        <ele>43.68</ele>
        <time>2012-03-04T10:57:35Z</time>
      </trkpt>
      <trkpt lat="43.06015" lon="3.02975">
        <ele>42.379</ele>
        <time>2012-03-04T10:57:43Z</time>
      </trkpt>
      <trkpt lat="43.06008" lon="3.02967">
        <ele>40.189</ele>
        <time>2012-03-04T10:57:51Z</time>
      </trkpt>
      <trkpt lat="43.06001" lon="3.0296">
        <ele>44.52</ele>
        <time>2012-03-04T10:58:00Z</time>
      </trkpt>
      <trkpt lat="43.05994" lon="3.02954">
        <ele>44.98</ele>
        <time>2012-03-04T10:58:07Z</time>
      </trkpt>
      <trkpt lat="43.05986" lon="3.02947">
        <ele>47.131</ele>
        <time>2012-03-04T10:58:15Z</time>
      </trkpt>
      <trkpt lat="43.05979" lon="3.0294">
        <ele>48.37</ele>
        <time>2012-03-04T10:58:23Z</time>
      </trkpt>
      <trkpt lat="43.0597" lon="3.02932">
        <ele>48.759</ele>
        <time>2012-03-04T10:58:33Z</time>
      </trkpt>
      <trkpt lat="43.0596" lon="3.02924">
        <ele>47.588</ele>
        <time>2012-03-04T10:58:42Z</time>
      </trkpt>
      <trkpt lat="43.05946" lon="3.02913">
        <ele>46.643</ele>
        <time>2012-03-04T10:58:53Z</time>
      </trkpt>
      <trkpt lat="43.05943" lon="3.02911">
        <ele>46.318</ele>
        <time>2012-03-04T10:58:56Z</time>
      </trkpt>
      <trkpt lat="43.05937" lon="3.02905">
        <ele>45.998</ele>
        <time>2012-03-04T10:59:03Z</time>
      </trkpt>
      <trkpt lat="43.05934" lon="3.02903">
        <ele>45.108</ele>
        <time>2012-03-04T10:59:06Z</time>
      </trkpt>
      <trkpt lat="43.05924" lon="3.02899">
        <ele>46.819</ele>
        <time>2012-03-04T10:59:15Z</time>
      </trkpt>
      <trkpt lat="43.05914" lon="3.02897">
        <ele>46.612</ele>
        <time>2012-03-04T10:59:22Z</time>
      </trkpt>
      <trkpt lat="43.0591" lon="3.02896">
        <ele>46.678</ele>
        <time>2012-03-04T10:59:25Z</time>
      </trkpt>
      <trkpt lat="43.05902" lon="3.02886">
        <ele>46.507</ele>
        <time>2012-03-04T10:59:34Z</time>
      </trkpt>
      <trkpt lat="43.05898" lon="3.02881">
        <ele>46.748</ele>
        <time>2012-03-04T10:59:39Z</time>
      </trkpt>
      <trkpt lat="43.05897" lon="3.0288">
        <ele>48.409</ele>
        <time>2012-03-04T10:59:46Z</time>
      </trkpt>
      <trkpt lat="43.05896" lon="3.02882">
        <ele>46.967</ele>
        <time>2012-03-04T11:00:19Z</time>
      </trkpt>
      <trkpt lat="43.05896" lon="3.02885">
        <ele>47.848</ele>
        <time>2012-03-04T11:00:35Z</time>
      </trkpt>
      <trkpt lat="43.05895" lon="3.02884">
        <ele>47.438</ele>
        <time>2012-03-04T11:00:41Z</time>
      </trkpt>
      <trkpt lat="43.05896" lon="3.02887">
        <ele>46.697</ele>
        <time>2012-03-04T11:00:47Z</time>
      </trkpt>
      <trkpt lat="43.05894" lon="3.02887">
        <ele>43.647</ele>
        <time>2012-03-04T11:01:04Z</time>
      </trkpt>
      <trkpt lat="43.05891" lon="3.02892">
        <ele>43.047</ele>
        <time>2012-03-04T11:01:10Z</time>
      </trkpt>
      <trkpt lat="43.05889" lon="3.02895">
        <ele>43.538</ele>
        <time>2012-03-04T11:01:13Z</time>
      </trkpt>
      <trkpt lat="43.05881" lon="3.029">
        <ele>44.948</ele>
        <time>2012-03-04T11:01:21Z</time>
      </trkpt>
      <trkpt lat="43.05873" lon="3.02903">
        <ele>46.228</ele>
        <time>2012-03-04T11:01:29Z</time>
      </trkpt>
      <trkpt lat="43.05865" lon="3.02906">
        <ele>45.807</ele>
        <time>2012-03-04T11:01:37Z</time>
      </trkpt>
      <trkpt lat="43.05858" lon="3.02909">
        <ele>45.587</ele>
        <time>2012-03-04T11:01:44Z</time>
      </trkpt>
      <trkpt lat="43.0585" lon="3.02916">
        <ele>44.597</ele>
        <time>2012-03-04T11:01:52Z</time>
      </trkpt>
      <trkpt lat="43.05841" lon="3.02922">
        <ele>43.797</ele>
        <time>2012-03-04T11:02:00Z</time>
      </trkpt>
      <trkpt lat="43.05835" lon="3.02929">
        <ele>45.247</ele>
        <time>2012-03-04T11:02:07Z</time>
      </trkpt>
      <trkpt lat="43.05829" lon="3.02934">
        <ele>47.909</ele>
        <time>2012-03-04T11:02:11Z</time>
      </trkpt>
      <trkpt lat="43.05818" lon="3.02934">
        <ele>49.068</ele>
        <time>2012-03-04T11:02:19Z</time>
      </trkpt>
      <trkpt lat="43.05819" lon="3.02935">
        <ele>47.887</ele>
        <time>2012-03-04T11:02:27Z</time>
      </trkpt>
      <trkpt lat="43.05823" lon="3.02941">
        <ele>47.487</ele>
        <time>2012-03-04T11:02:33Z</time>
      </trkpt>
      <trkpt lat="43.05823" lon="3.02945">
        <ele>46.337</ele>
        <time>2012-03-04T11:02:41Z</time>
      </trkpt>
      <trkpt lat="43.05823" lon="3.02946">
        <ele>46.327</ele>
        <time>2012-03-04T11:02:42Z</time>
      </trkpt>
      <trkpt lat="43.05822" lon="3.02948">
        <ele>45.487</ele>
        <time>2012-03-04T11:02:47Z</time>
      </trkpt>
      <trkpt lat="43.05821" lon="3.02949">
        <ele>45.318</ele>
        <time>2012-03-04T11:02:52Z</time>
      </trkpt>
      <trkpt lat="43.05819" lon="3.02958">
        <ele>44.857</ele>
        <time>2012-03-04T11:03:00Z</time>
      </trkpt>
      <trkpt lat="43.05818" lon="3.02967">
        <ele>45.077</ele>
        <time>2012-03-04T11:03:08Z</time>
      </trkpt>
      <trkpt lat="43.05818" lon="3.02968">
        <ele>44.857</ele>
        <time>2012-03-04T11:03:09Z</time>
      </trkpt>
      <trkpt lat="43.05816" lon="3.02972">
        <ele>44.838</ele>
        <time>2012-03-04T11:03:14Z</time>
      </trkpt>
      <trkpt lat="43.05812" lon="3.02971">
        <ele>44.758</ele>
        <time>2012-03-04T11:03:20Z</time>
      </trkpt>
      <trkpt lat="43.05811" lon="3.02973">
        <ele>45.008</ele>
        <time>2012-03-04T11:03:26Z</time>
      </trkpt>
      <trkpt lat="43.05811" lon="3.02976">
        <ele>42.848</ele>
        <time>2012-03-04T11:03:34Z</time>
      </trkpt>
      <trkpt lat="43.05809" lon="3.02974">
        <ele>43.828</ele>
        <time>2012-03-04T11:03:43Z</time>
      </trkpt>
      <trkpt lat="43.05804" lon="3.02967">
        <ele>44.368</ele>
        <time>2012-03-04T11:03:50Z</time>
      </trkpt>
      <trkpt lat="43.05802" lon="3.02965">
        <ele>43.837</ele>
        <time>2012-03-04T11:03:53Z</time>
      </trkpt>
      <trkpt lat="43.05799" lon="3.02963">
        <ele>45.198</ele>
        <time>2012-03-04T11:04:00Z</time>
      </trkpt>
      <trkpt lat="43.05794" lon="3.02963">
        <ele>41.886</ele>
        <time>2012-03-04T11:04:13Z</time>
      </trkpt>
      <trkpt lat="43.05792" lon="3.02961">
        <ele>44.228</ele>
        <time>2012-03-04T11:04:22Z</time>
      </trkpt>
      <trkpt lat="43.05792" lon="3.0296">
        <ele>45.788</ele>
        <time>2012-03-04T11:04:41Z</time>
      </trkpt>
      <trkpt lat="43.05793" lon="3.02958">
        <ele>45.847</ele>
        <time>2012-03-04T11:04:53Z</time>
      </trkpt>
      <trkpt lat="43.05801" lon="3.02965">
        <ele>43.227</ele>
        <time>2012-03-04T11:05:02Z</time>
      </trkpt>
      <trkpt lat="43.05805" lon="3.02968">
        <ele>41.476</ele>
        <time>2012-03-04T11:05:06Z</time>
      </trkpt>
      <trkpt lat="43.05813" lon="3.02977">
        <ele>42.427</ele>
        <time>2012-03-04T11:05:14Z</time>
      </trkpt>
      <trkpt lat="43.05822" lon="3.02985">
        <ele>43.241</ele>
        <time>2012-03-04T11:05:22Z</time>
      </trkpt>
      <trkpt lat="43.0583" lon="3.02993">
        <ele>44.488</ele>
        <time>2012-03-04T11:05:30Z</time>
      </trkpt>
      <trkpt lat="43.05836" lon="3.02999">
        <ele>44.768</ele>
        <time>2012-03-04T11:05:36Z</time>
      </trkpt>
      <trkpt lat="43.05844" lon="3.03007">
        <ele>42.858</ele>
        <time>2012-03-04T11:05:44Z</time>
      </trkpt>
      <trkpt lat="43.05851" lon="3.03015">
        <ele>41.957</ele>
        <time>2012-03-04T11:05:52Z</time>
      </trkpt>
      <trkpt lat="43.05859" lon="3.03025">
        <ele>42.017</ele>
        <time>2012-03-04T11:06:01Z</time>
      </trkpt>
      <trkpt lat="43.05868" lon="3.03035">
        <ele>41.827</ele>
        <time>2012-03-04T11:06:10Z</time>
      </trkpt>
      <trkpt lat="43.05879" lon="3.03046">
        <ele>41.918</ele>
        <time>2012-03-04T11:06:20Z</time>
      </trkpt>
      <trkpt lat="43.05888" lon="3.03054">
        <ele>43.308</ele>
        <time>2012-03-04T11:06:28Z</time>
      </trkpt>
      <trkpt lat="43.05896" lon="3.03062">
        <ele>44.778</ele>
        <time>2012-03-04T11:06:35Z</time>
      </trkpt>
      <trkpt lat="43.05906" lon="3.0307">
        <ele>45.532</ele>
        <time>2012-03-04T11:06:44Z</time>
      </trkpt>
      <trkpt lat="43.05916" lon="3.03078">
        <ele>45.199</ele>
        <time>2012-03-04T11:06:53Z</time>
      </trkpt>
      <trkpt lat="43.0592" lon="3.03082">
        <ele>44.948</ele>
        <time>2012-03-04T11:06:57Z</time>
      </trkpt>
      <trkpt lat="43.05922" lon="3.0309">
        <ele>42.507</ele>
        <time>2012-03-04T11:07:03Z</time>
      </trkpt>
      <trkpt lat="43.05923" lon="3.03096">
        <ele>39.718</ele>
        <time>2012-03-04T11:07:11Z</time>
      </trkpt>
      <trkpt lat="43.05925" lon="3.03101">
        <ele>36.948</ele>
        <time>2012-03-04T11:07:36Z</time>
      </trkpt>
      <trkpt lat="43.05919" lon="3.03109">
        <ele>39.038</ele>
        <time>2012-03-04T11:07:42Z</time>
      </trkpt>
      <trkpt lat="43.05914" lon="3.03113">
        <ele>38.448</ele>
        <time>2012-03-04T11:07:47Z</time>
      </trkpt>
      <trkpt lat="43.05911" lon="3.03119">
        <ele>38.418</ele>
        <time>2012-03-04T11:07:51Z</time>
      </trkpt>
      <trkpt lat="43.05903" lon="3.03132">
        <ele>36.747</ele>
        <time>2012-03-04T11:08:01Z</time>
      </trkpt>
      <trkpt lat="43.05899" lon="3.03139">
        <ele>36.318</ele>
        <time>2012-03-04T11:08:08Z</time>
      </trkpt>
      <trkpt lat="43.05894" lon="3.03147">
        <ele>35.228</ele>
        <time>2012-03-04T11:08:16Z</time>
      </trkpt>
      <trkpt lat="43.05893" lon="3.03148">
        <ele>34.988</ele>
        <time>2012-03-04T11:08:17Z</time>
      </trkpt>
      <trkpt lat="43.05889" lon="3.03158">
        <ele>34.468</ele>
        <time>2012-03-04T11:08:28Z</time>
      </trkpt>
      <trkpt lat="43.05884" lon="3.03164">
        <ele>33.537</ele>
        <time>2012-03-04T11:08:35Z</time>
      </trkpt>
      <trkpt lat="43.0588" lon="3.0317">
        <ele>33.408</ele>
        <time>2012-03-04T11:08:44Z</time>
      </trkpt>
      <trkpt lat="43.05877" lon="3.03177">
        <ele>34.268</ele>
        <time>2012-03-04T11:08:52Z</time>
      </trkpt>
      <trkpt lat="43.05874" lon="3.03183">
        <ele>34.978</ele>
        <time>2012-03-04T11:09:01Z</time>
      </trkpt>
      <trkpt lat="43.0587" lon="3.03191">
        <ele>35.628</ele>
        <time>2012-03-04T11:09:11Z</time>
      </trkpt>
      <trkpt lat="43.05867" lon="3.03196">
        <ele>35.829</ele>
        <time>2012-03-04T11:09:19Z</time>
      </trkpt>
      <trkpt lat="43.05865" lon="3.03199">
        <ele>37.039</ele>
        <time>2012-03-04T11:09:24Z</time>
      </trkpt>
      <trkpt lat="43.05862" lon="3.03202">
        <ele>36.668</ele>
        <time>2012-03-04T11:09:31Z</time>
      </trkpt>
      <trkpt lat="43.0586" lon="3.03205">
        <ele>36.869</ele>
        <time>2012-03-04T11:09:37Z</time>
      </trkpt>
      <trkpt lat="43.05857" lon="3.03209">
        <ele>36.658</ele>
        <time>2012-03-04T11:09:43Z</time>
      </trkpt>
      <trkpt lat="43.05853" lon="3.03213">
        <ele>36.969</ele>
        <time>2012-03-04T11:09:51Z</time>
      </trkpt>
      <trkpt lat="43.05852" lon="3.03215">
        <ele>36.749</ele>
        <time>2012-03-04T11:10:03Z</time>
      </trkpt>
      <trkpt lat="43.05844" lon="3.03224">
        <ele>34.568</ele>
        <time>2012-03-04T11:10:13Z</time>
      </trkpt>
      <trkpt lat="43.05843" lon="3.03224">
        <ele>34.278</ele>
        <time>2012-03-04T11:10:14Z</time>
      </trkpt>
      <trkpt lat="43.05838" lon="3.03231">
        <ele>33.375</ele>
        <time>2012-03-04T11:10:20Z</time>
      </trkpt>
      <trkpt lat="43.05833" lon="3.03236">
        <ele>31.757</ele>
        <time>2012-03-04T11:10:26Z</time>
      </trkpt>
      <trkpt lat="43.05828" lon="3.03243">
        <ele>30.556</ele>
        <time>2012-03-04T11:10:33Z</time>
      </trkpt>
      <trkpt lat="43.05823" lon="3.03251">
        <ele>32.017</ele>
        <time>2012-03-04T11:10:39Z</time>
      </trkpt>
      <trkpt lat="43.0582" lon="3.03257">
        <ele>33.318</ele>
        <time>2012-03-04T11:10:44Z</time>
      </trkpt>
      <trkpt lat="43.05813" lon="3.03265">
        <ele>33.747</ele>
        <time>2012-03-04T11:10:53Z</time>
      </trkpt>
      <trkpt lat="43.0581" lon="3.03266">
        <ele>33.486</ele>
        <time>2012-03-04T11:10:56Z</time>
      </trkpt>
      <trkpt lat="43.05801" lon="3.03271">
        <ele>31.606</ele>
        <time>2012-03-04T11:11:05Z</time>
      </trkpt>
      <trkpt lat="43.05793" lon="3.03275">
        <ele>27.186</ele>
        <time>2012-03-04T11:11:14Z</time>
      </trkpt>
      <trkpt lat="43.05783" lon="3.0328">
        <ele>24.396</ele>
        <time>2012-03-04T11:11:23Z</time>
      </trkpt>
      <trkpt lat="43.05772" lon="3.03288">
        <ele>25.445</ele>
        <time>2012-03-04T11:11:30Z</time>
      </trkpt>
      <trkpt lat="43.05761" lon="3.03293">
        <ele>25.847</ele>
        <time>2012-03-04T11:11:39Z</time>
      </trkpt>
      <trkpt lat="43.0575" lon="3.03302">
        <ele>30.949</ele>
        <time>2012-03-04T11:11:47Z</time>
      </trkpt>
      <trkpt lat="43.05749" lon="3.03305">
        <ele>29.948</ele>
        <time>2012-03-04T11:11:49Z</time>
      </trkpt>
      <trkpt lat="43.05743" lon="3.03313">
        <ele>31.666</ele>
        <time>2012-03-04T11:11:56Z</time>
      </trkpt>
      <trkpt lat="43.05741" lon="3.03315">
        <ele>31.138</ele>
        <time>2012-03-04T11:11:58Z</time>
      </trkpt>
      <trkpt lat="43.05733" lon="3.03323">
        <ele>32.357</ele>
        <time>2012-03-04T11:12:05Z</time>
      </trkpt>
      <trkpt lat="43.05726" lon="3.0333">
        <ele>32.386</ele>
        <time>2012-03-04T11:12:14Z</time>
      </trkpt>
      <trkpt lat="43.05719" lon="3.03335">
        <ele>31.616</ele>
        <time>2012-03-04T11:12:21Z</time>
      </trkpt>
      <trkpt lat="43.05714" lon="3.0334">
        <ele>28.355</ele>
        <time>2012-03-04T11:12:28Z</time>
      </trkpt>
      <trkpt lat="43.05706" lon="3.03348">
        <ele>27.007</ele>
        <time>2012-03-04T11:12:36Z</time>
      </trkpt>
      <trkpt lat="43.05696" lon="3.0336">
        <ele>31.089</ele>
        <time>2012-03-04T11:12:43Z</time>
      </trkpt>
      <trkpt lat="43.05686" lon="3.03373">
        <ele>33.009</ele>
        <time>2012-03-04T11:12:52Z</time>
      </trkpt>
      <trkpt lat="43.05675" lon="3.03383">
        <ele>38.82</ele>
        <time>2012-03-04T11:13:00Z</time>
      </trkpt>
      <trkpt lat="43.05667" lon="3.03396">
        <ele>35.457</ele>
        <time>2012-03-04T11:13:09Z</time>
      </trkpt>
      <trkpt lat="43.05662" lon="3.03401">
        <ele>33.307</ele>
        <time>2012-03-04T11:13:16Z</time>
      </trkpt>
      <trkpt lat="43.05654" lon="3.03412">
        <ele>34.157</ele>
        <time>2012-03-04T11:13:25Z</time>
      </trkpt>
      <trkpt lat="43.05648" lon="3.03421">
        <ele>31.957</ele>
        <time>2012-03-04T11:13:32Z</time>
      </trkpt>
      <trkpt lat="43.05646" lon="3.03426">
        <ele>30.727</ele>
        <time>2012-03-04T11:13:37Z</time>
      </trkpt>
      <trkpt lat="43.05638" lon="3.03437">
        <ele>33.578</ele>
        <time>2012-03-04T11:13:45Z</time>
      </trkpt>
      <trkpt lat="43.0563" lon="3.03452">
        <ele>36.379</ele>
        <time>2012-03-04T11:13:55Z</time>
      </trkpt>
      <trkpt lat="43.0562" lon="3.03465">
        <ele>36.488</ele>
        <time>2012-03-04T11:14:06Z</time>
      </trkpt>
      <trkpt lat="43.05613" lon="3.03477">
        <ele>35.729</ele>
        <time>2012-03-04T11:14:16Z</time>
      </trkpt>
      <trkpt lat="43.05606" lon="3.03487">
        <ele>36.309</ele>
        <time>2012-03-04T11:14:24Z</time>
      </trkpt>
      <trkpt lat="43.05601" lon="3.03498">
        <ele>34.805</ele>
        <time>2012-03-04T11:14:33Z</time>
      </trkpt>
      <trkpt lat="43.05594" lon="3.03512">
        <ele>33.117</ele>
        <time>2012-03-04T11:14:44Z</time>
      </trkpt>
      <trkpt lat="43.05588" lon="3.03524">
        <ele>31.827</ele>
        <time>2012-03-04T11:14:53Z</time>
      </trkpt>
      <trkpt lat="43.05583" lon="3.03535">
        <ele>30.146</ele>
        <time>2012-03-04T11:15:02Z</time>
      </trkpt>
      <trkpt lat="43.05576" lon="3.0355">
        <ele>29.948</ele>
        <time>2012-03-04T11:15:12Z</time>
      </trkpt>
      <trkpt lat="43.05573" lon="3.03561">
        <ele>27.397</ele>
        <time>2012-03-04T11:15:20Z</time>
      </trkpt>
      <trkpt lat="43.05567" lon="3.03581">
        <ele>30.068</ele>
        <time>2012-03-04T11:15:31Z</time>
      </trkpt>
      <trkpt lat="43.05562" lon="3.03596">
        <ele>28.637</ele>
        <time>2012-03-04T11:15:41Z</time>
      </trkpt>
      <trkpt lat="43.05558" lon="3.03608">
        <ele>27.487</ele>
        <time>2012-03-04T11:15:49Z</time>
      </trkpt>
      <trkpt lat="43.05553" lon="3.03621">
        <ele>25.947</ele>
        <time>2012-03-04T11:15:58Z</time>
      </trkpt>
      <trkpt lat="43.05546" lon="3.03635">
        <ele>27.668</ele>
        <time>2012-03-04T11:16:07Z</time>
      </trkpt>
      <trkpt lat="43.05539" lon="3.03648">
        <ele>27.768</ele>
        <time>2012-03-04T11:16:16Z</time>
      </trkpt>
      <trkpt lat="43.05534" lon="3.03657">
        <ele>26.747</ele>
        <time>2012-03-04T11:16:24Z</time>
      </trkpt>
      <trkpt lat="43.05528" lon="3.03668">
        <ele>26.347</ele>
        <time>2012-03-04T11:16:31Z</time>
      </trkpt>
      <trkpt lat="43.0552" lon="3.03681">
        <ele>26.577</ele>
        <time>2012-03-04T11:16:41Z</time>
      </trkpt>
      <trkpt lat="43.05511" lon="3.03692">
        <ele>26.208</ele>
        <time>2012-03-04T11:16:50Z</time>
      </trkpt>
      <trkpt lat="43.05505" lon="3.03697">
        <ele>24.788</ele>
        <time>2012-03-04T11:16:56Z</time>
      </trkpt>
      <trkpt lat="43.05498" lon="3.03704">
        <ele>24.355</ele>
        <time>2012-03-04T11:17:03Z</time>
      </trkpt>
      <trkpt lat="43.05487" lon="3.03719">
        <ele>25.267</ele>
        <time>2012-03-04T11:17:14Z</time>
      </trkpt>
      <trkpt lat="43.05478" lon="3.03731">
        <ele>25.797</ele>
        <time>2012-03-04T11:17:23Z</time>
      </trkpt>
      <trkpt lat="43.05466" lon="3.03746">
        <ele>30.558</ele>
        <time>2012-03-04T11:17:32Z</time>
      </trkpt>
      <trkpt lat="43.05461" lon="3.03757">
        <ele>32.789</ele>
        <time>2012-03-04T11:17:38Z</time>
      </trkpt>
      <trkpt lat="43.05456" lon="3.03764">
        <ele>32.929</ele>
        <time>2012-03-04T11:17:44Z</time>
      </trkpt>
      <trkpt lat="43.05449" lon="3.03774">
        <ele>31.617</ele>
        <time>2012-03-04T11:17:52Z</time>
      </trkpt>
      <trkpt lat="43.0544" lon="3.03783">
        <ele>28.444</ele>
        <time>2012-03-04T11:18:02Z</time>
      </trkpt>
      <trkpt lat="43.0543" lon="3.03793">
        <ele>25.367</ele>
        <time>2012-03-04T11:18:13Z</time>
      </trkpt>
      <trkpt lat="43.0542" lon="3.03803">
        <ele>25.087</ele>
        <time>2012-03-04T11:18:23Z</time>
      </trkpt>
      <trkpt lat="43.05409" lon="3.03811">
        <ele>26.687</ele>
        <time>2012-03-04T11:18:32Z</time>
      </trkpt>
      <trkpt lat="43.05394" lon="3.03814">
        <ele>28.318</ele>
        <time>2012-03-04T11:18:43Z</time>
      </trkpt>
      <trkpt lat="43.05376" lon="3.03818">
        <ele>32.338</ele>
        <time>2012-03-04T11:18:55Z</time>
      </trkpt>
      <trkpt lat="43.05371" lon="3.0382">
        <ele>32.488</ele>
        <time>2012-03-04T11:18:59Z</time>
      </trkpt>
      <trkpt lat="43.05362" lon="3.03829">
        <ele>32.918</ele>
        <time>2012-03-04T11:19:08Z</time>
      </trkpt>
      <trkpt lat="43.05361" lon="3.03833">
        <ele>32.778</ele>
        <time>2012-03-04T11:19:14Z</time>
      </trkpt>
      <trkpt lat="43.05361" lon="3.03834">
        <ele>32.538</ele>
        <time>2012-03-04T11:19:16Z</time>
      </trkpt>
      <trkpt lat="43.05355" lon="3.03838">
        <ele>31.868</ele>
        <time>2012-03-04T11:19:22Z</time>
      </trkpt>
      <trkpt lat="43.05345" lon="3.03847">
        <ele>30.928</ele>
        <time>2012-03-04T11:19:32Z</time>
      </trkpt>
      <trkpt lat="43.05335" lon="3.03859">
        <ele>30.349</ele>
        <time>2012-03-04T11:19:42Z</time>
      </trkpt>
      <trkpt lat="43.05329" lon="3.03872">
        <ele>29.498</ele>
        <time>2012-03-04T11:19:52Z</time>
      </trkpt>
      <trkpt lat="43.05324" lon="3.03888">
        <ele>28.226</ele>
        <time>2012-03-04T11:20:02Z</time>
      </trkpt>
      <trkpt lat="43.05324" lon="3.03902">
        <ele>27.138</ele>
        <time>2012-03-04T11:20:11Z</time>
      </trkpt>
      <trkpt lat="43.05326" lon="3.03927">
        <ele>27.677</ele>
        <time>2012-03-04T11:20:25Z</time>
      </trkpt>
      <trkpt lat="43.05327" lon="3.03946">
        <ele>26.047</ele>
        <time>2012-03-04T11:20:36Z</time>
      </trkpt>
      <trkpt lat="43.05329" lon="3.03962">
        <ele>23.617</ele>
        <time>2012-03-04T11:20:46Z</time>
      </trkpt>
      <trkpt lat="43.05334" lon="3.03977">
        <ele>19.306</ele>
        <time>2012-03-04T11:20:56Z</time>
      </trkpt>
      <trkpt lat="43.05334" lon="3.0399">
        <ele>17.806</ele>
        <time>2012-03-04T11:21:04Z</time>
      </trkpt>
      <trkpt lat="43.05335" lon="3.04002">
        <ele>13.506</ele>
        <time>2012-03-04T11:21:13Z</time>
      </trkpt>
      <trkpt lat="43.05333" lon="3.04025">
        <ele>14.554</ele>
        <time>2012-03-04T11:21:24Z</time>
      </trkpt>
      <trkpt lat="43.05333" lon="3.04027">
        <ele>13.375</ele>
        <time>2012-03-04T11:21:26Z</time>
      </trkpt>
      <trkpt lat="43.05333" lon="3.0403">
        <ele>13.956</ele>
        <time>2012-03-04T11:21:28Z</time>
      </trkpt>
      <trkpt lat="43.05333" lon="3.04045">
        <ele>16.568</ele>
        <time>2012-03-04T11:21:35Z</time>
      </trkpt>
      <trkpt lat="43.05332" lon="3.04065">
        <ele>23.078</ele>
        <time>2012-03-04T11:21:44Z</time>
      </trkpt>
      <trkpt lat="43.05335" lon="3.04077">
        <ele>23.542</ele>
        <time>2012-03-04T11:21:51Z</time>
      </trkpt>
      <trkpt lat="43.05338" lon="3.04087">
        <ele>25.219</ele>
        <time>2012-03-04T11:21:58Z</time>
      </trkpt>
      <trkpt lat="43.05342" lon="3.04099">
        <ele>25.528</ele>
        <time>2012-03-04T11:22:05Z</time>
      </trkpt>
      <trkpt lat="43.05347" lon="3.04115">
        <ele>25.738</ele>
        <time>2012-03-04T11:22:13Z</time>
      </trkpt>
      <trkpt lat="43.05354" lon="3.04128">
        <ele>26.148</ele>
        <time>2012-03-04T11:22:22Z</time>
      </trkpt>
      <trkpt lat="43.0536" lon="3.04135">
        <ele>24.706</ele>
        <time>2012-03-04T11:22:29Z</time>
      </trkpt>
      <trkpt lat="43.05367" lon="3.04141">
        <ele>23.539</ele>
        <time>2012-03-04T11:22:35Z</time>
      </trkpt>
      <trkpt lat="43.05374" lon="3.04147">
        <ele>24.899</ele>
        <time>2012-03-04T11:22:42Z</time>
      </trkpt>
      <trkpt lat="43.05383" lon="3.04154">
        <ele>24.429</ele>
        <time>2012-03-04T11:22:51Z</time>
      </trkpt>
      <trkpt lat="43.05392" lon="3.04161">
        <ele>24.749</ele>
        <time>2012-03-04T11:22:59Z</time>
      </trkpt>
      <trkpt lat="43.05398" lon="3.04167">
        <ele>25.429</ele>
        <time>2012-03-04T11:23:07Z</time>
      </trkpt>
      <trkpt lat="43.05408" lon="3.04174">
        <ele>24.088</ele>
        <time>2012-03-04T11:23:14Z</time>
      </trkpt>
      <trkpt lat="43.05417" lon="3.04184">
        <ele>23.74</ele>
        <time>2012-03-04T11:23:23Z</time>
      </trkpt>
      <trkpt lat="43.05423" lon="3.04194">
        <ele>24.089</ele>
        <time>2012-03-04T11:23:30Z</time>
      </trkpt>
      <trkpt lat="43.05429" lon="3.04205">
        <ele>23.279</ele>
        <time>2012-03-04T11:23:39Z</time>
      </trkpt>
      <trkpt lat="43.05434" lon="3.04213">
        <ele>22.769</ele>
        <time>2012-03-04T11:23:44Z</time>
      </trkpt>
      <trkpt lat="43.0544" lon="3.04226">
        <ele>22.188</ele>
        <time>2012-03-04T11:23:53Z</time>
      </trkpt>
      <trkpt lat="43.05448" lon="3.04241">
        <ele>23.57</ele>
        <time>2012-03-04T11:24:04Z</time>
      </trkpt>
      <trkpt lat="43.05452" lon="3.0425">
        <ele>24.15</ele>
        <time>2012-03-04T11:24:11Z</time>
      </trkpt>
      <trkpt lat="43.05456" lon="3.04265">
        <ele>20.377</ele>
        <time>2012-03-04T11:24:21Z</time>
      </trkpt>
      <trkpt lat="43.05458" lon="3.04278">
        <ele>18.038</ele>
        <time>2012-03-04T11:24:30Z</time>
      </trkpt>
      <trkpt lat="43.05462" lon="3.04291">
        <ele>18.51</ele>
        <time>2012-03-04T11:24:38Z</time>
      </trkpt>
      <trkpt lat="43.05465" lon="3.04307">
        <ele>20.38</ele>
        <time>2012-03-04T11:24:47Z</time>
      </trkpt>
      <trkpt lat="43.05469" lon="3.0432">
        <ele>19.109</ele>
        <time>2012-03-04T11:24:54Z</time>
      </trkpt>
      <trkpt lat="43.05471" lon="3.04324">
        <ele>19.17</ele>
        <time>2012-03-04T11:25:01Z</time>
      </trkpt>
      <trkpt lat="43.05468" lon="3.04332">
        <ele>22.35</ele>
        <time>2012-03-04T11:27:26Z</time>
      </trkpt>
      <trkpt lat="43.05472" lon="3.04329">
        <ele>24.54</ele>
        <time>2012-03-04T11:27:53Z</time>
      </trkpt>
      <trkpt lat="43.05476" lon="3.04334">
        <ele>22.02</ele>
        <time>2012-03-04T11:28:05Z</time>
      </trkpt>
      <trkpt lat="43.05478" lon="3.04337">
        <ele>21.72</ele>
        <time>2012-03-04T11:28:08Z</time>
      </trkpt>
      <trkpt lat="43.05483" lon="3.04345">
        <ele>21.85</ele>
        <time>2012-03-04T11:28:18Z</time>
      </trkpt>
      <trkpt lat="43.05486" lon="3.04347">
        <ele>22.751</ele>
        <time>2012-03-04T11:28:26Z</time>
      </trkpt>
      <trkpt lat="43.05489" lon="3.04348">
        <ele>23.331</ele>
        <time>2012-03-04T11:28:32Z</time>
      </trkpt>
      <trkpt lat="43.05491" lon="3.04351">
        <ele>21.929</ele>
        <time>2012-03-04T11:28:37Z</time>
      </trkpt>
      <trkpt lat="43.05495" lon="3.04356">
        <ele>21.26</ele>
        <time>2012-03-04T11:28:44Z</time>
      </trkpt>
      <trkpt lat="43.055" lon="3.04364">
        <ele>21.784</ele>
        <time>2012-03-04T11:28:52Z</time>
      </trkpt>
      <trkpt lat="43.05501" lon="3.04368">
        <ele>21.991</ele>
        <time>2012-03-04T11:28:55Z</time>
      </trkpt>
      <trkpt lat="43.05501" lon="3.04373">
        <ele>22.182</ele>
        <time>2012-03-04T11:28:59Z</time>
      </trkpt>
      <trkpt lat="43.055" lon="3.04385">
        <ele>22.441</ele>
        <time>2012-03-04T11:29:07Z</time>
      </trkpt>
      <trkpt lat="43.05497" lon="3.04395">
        <ele>22.99</ele>
        <time>2012-03-04T11:29:16Z</time>
      </trkpt>
      <trkpt lat="43.05495" lon="3.04401">
        <ele>23.14</ele>
        <time>2012-03-04T11:29:22Z</time>
      </trkpt>
      <trkpt lat="43.05493" lon="3.04408">
        <ele>22.59</ele>
        <time>2012-03-04T11:29:30Z</time>
      </trkpt>
      <trkpt lat="43.05493" lon="3.04408">
        <ele>23.879</ele>
        <time>2012-03-04T11:29:40Z</time>
      </trkpt>
      <trkpt lat="43.05488" lon="3.044">
        <ele>21.6</ele>
        <time>2012-03-04T11:30:05Z</time>
      </trkpt>
      <trkpt lat="43.0549" lon="3.04406">
        <ele>18.549</ele>
        <time>2012-03-04T11:30:11Z</time>
      </trkpt>
      <trkpt lat="43.05491" lon="3.04409">
        <ele>17.04</ele>
        <time>2012-03-04T11:30:17Z</time>
      </trkpt>
      <trkpt lat="43.05492" lon="3.04407">
        <ele>18.821</ele>
        <time>2012-03-04T11:30:25Z</time>
      </trkpt>
      <trkpt lat="43.05493" lon="3.04409">
        <ele>19.901</ele>
        <time>2012-03-04T11:30:28Z</time>
      </trkpt>
      <trkpt lat="43.05498" lon="3.04416">
        <ele>23.072</ele>
        <time>2012-03-04T11:30:36Z</time>
      </trkpt>
      <trkpt lat="43.05501" lon="3.04418">
        <ele>21.73</ele>
        <time>2012-03-04T11:30:39Z</time>
      </trkpt>
      <trkpt lat="43.05504" lon="3.04418">
        <ele>19.84</ele>
        <time>2012-03-04T11:30:43Z</time>
      </trkpt>
      <trkpt lat="43.05505" lon="3.04416">
        <ele>17.159</ele>
        <time>2012-03-04T11:30:49Z</time>
      </trkpt>
      <trkpt lat="43.05505" lon="3.0442">
        <ele>20.611</ele>
        <time>2012-03-04T11:30:55Z</time>
      </trkpt>
      <trkpt lat="43.0551" lon="3.04426">
        <ele>24.992</ele>
        <time>2012-03-04T11:31:03Z</time>
      </trkpt>
      <trkpt lat="43.0552" lon="3.04433">
        <ele>26.041</ele>
        <time>2012-03-04T11:31:12Z</time>
      </trkpt>
      <trkpt lat="43.05528" lon="3.04437">
        <ele>26.101</ele>
        <time>2012-03-04T11:31:18Z</time>
      </trkpt>
      <trkpt lat="43.05533" lon="3.04443">
        <ele>27.25</ele>
        <time>2012-03-04T11:31:25Z</time>
      </trkpt>
      <trkpt lat="43.05535" lon="3.04444">
        <ele>27.701</ele>
        <time>2012-03-04T11:31:27Z</time>
      </trkpt>
      <trkpt lat="43.05542" lon="3.04454">
        <ele>27.41</ele>
        <time>2012-03-04T11:31:36Z</time>
      </trkpt>
      <trkpt lat="43.05545" lon="3.04455">
        <ele>26.971</ele>
        <time>2012-03-04T11:31:43Z</time>
      </trkpt>
      <trkpt lat="43.05545" lon="3.04456">
        <ele>27.342</ele>
        <time>2012-03-04T11:31:55Z</time>
      </trkpt>
      <trkpt lat="43.05547" lon="3.0446">
        <ele>28.722</ele>
        <time>2012-03-04T11:31:59Z</time>
      </trkpt>
      <trkpt lat="43.05549" lon="3.04465">
        <ele>29.021</ele>
        <time>2012-03-04T11:32:03Z</time>
      </trkpt>
      <trkpt lat="43.05551" lon="3.04469">
        <ele>29.071</ele>
        <time>2012-03-04T11:32:10Z</time>
      </trkpt>
      <trkpt lat="43.05551" lon="3.04469">
        <ele>27.251</ele>
        <time>2012-03-04T11:32:17Z</time>
      </trkpt>
      <trkpt lat="43.0555" lon="3.04471">
        <ele>25.021</ele>
        <time>2012-03-04T11:32:33Z</time>
      </trkpt>
      <trkpt lat="43.05551" lon="3.04476">
        <ele>25.712</ele>
        <time>2012-03-04T11:32:57Z</time>
      </trkpt>
      <trkpt lat="43.05551" lon="3.04478">
        <ele>25.912</ele>
        <time>2012-03-04T11:32:58Z</time>
      </trkpt>
      <trkpt lat="43.0555" lon="3.04484">
        <ele>27.382</ele>
        <time>2012-03-04T11:33:05Z</time>
      </trkpt>
      <trkpt lat="43.05551" lon="3.04486">
        <ele>26.86</ele>
        <time>2012-03-04T11:33:11Z</time>
      </trkpt>
      <trkpt lat="43.05551" lon="3.04495">
        <ele>26.79</ele>
        <time>2012-03-04T11:33:18Z</time>
      </trkpt>
      <trkpt lat="43.0555" lon="3.04501">
        <ele>26.41</ele>
        <time>2012-03-04T11:33:23Z</time>
      </trkpt>
      <trkpt lat="43.05548" lon="3.04508">
        <ele>25.779</ele>
        <time>2012-03-04T11:33:29Z</time>
      </trkpt>
      <trkpt lat="43.05548" lon="3.04518">
        <ele>21.788</ele>
        <time>2012-03-04T11:33:36Z</time>
      </trkpt>
      <trkpt lat="43.05547" lon="3.04531">
        <ele>15.327</ele>
        <time>2012-03-04T11:33:46Z</time>
      </trkpt>
      <trkpt lat="43.05541" lon="3.04545">
        <ele>15.939</ele>
        <time>2012-03-04T11:33:55Z</time>
      </trkpt>
      <trkpt lat="43.05536" lon="3.04553">
        <ele>14.689</ele>
        <time>2012-03-04T11:34:03Z</time>
      </trkpt>
      <trkpt lat="43.05534" lon="3.04555">
        <ele>19.491</ele>
        <time>2012-03-04T11:34:07Z</time>
      </trkpt>
      <trkpt lat="43.05531" lon="3.04559">
        <ele>19.049</ele>
        <time>2012-03-04T11:34:11Z</time>
      </trkpt>
      <trkpt lat="43.05529" lon="3.04564">
        <ele>16.678</ele>
        <time>2012-03-04T11:34:16Z</time>
      </trkpt>
      <trkpt lat="43.05526" lon="3.04567">
        <ele>15.028</ele>
        <time>2012-03-04T11:34:20Z</time>
      </trkpt>
      <trkpt lat="43.05519" lon="3.04576">
        <ele>11.718</ele>
        <time>2012-03-04T11:34:29Z</time>
      </trkpt>
      <trkpt lat="43.05513" lon="3.04583">
        <ele>7.377</ele>
        <time>2012-03-04T11:34:38Z</time>
      </trkpt>
      <trkpt lat="43.05505" lon="3.04592">
        <ele>6.688</ele>
        <time>2012-03-04T11:34:47Z</time>
      </trkpt>
      <trkpt lat="43.05495" lon="3.04602">
        <ele>12.739</ele>
        <time>2012-03-04T11:34:54Z</time>
      </trkpt>
      <trkpt lat="43.0549" lon="3.04609">
        <ele>18.351</ele>
        <time>2012-03-04T11:35:01Z</time>
      </trkpt>
      <trkpt lat="43.05486" lon="3.04614">
        <ele>18.68</ele>
        <time>2012-03-04T11:35:11Z</time>
      </trkpt>
      <trkpt lat="43.05483" lon="3.04615">
        <ele>21.372</ele>
        <time>2012-03-04T11:35:16Z</time>
      </trkpt>
      <trkpt lat="43.0548" lon="3.0462">
        <ele>21.671</ele>
        <time>2012-03-04T11:35:22Z</time>
      </trkpt>
      <trkpt lat="43.05475" lon="3.04629">
        <ele>21.85</ele>
        <time>2012-03-04T11:35:30Z</time>
      </trkpt>
      <trkpt lat="43.05469" lon="3.04637">
        <ele>22.051</ele>
        <time>2012-03-04T11:35:38Z</time>
      </trkpt>
      <trkpt lat="43.05462" lon="3.04645">
        <ele>18.89</ele>
        <time>2012-03-04T11:35:47Z</time>
      </trkpt>
      <trkpt lat="43.05454" lon="3.04651">
        <ele>16.588</ele>
        <time>2012-03-04T11:35:56Z</time>
      </trkpt>
      <trkpt lat="43.05442" lon="3.04657">
        <ele>17.53</ele>
        <time>2012-03-04T11:36:06Z</time>
      </trkpt>
      <trkpt lat="43.05428" lon="3.04661">
        <ele>17.99</ele>
        <time>2012-03-04T11:36:17Z</time>
      </trkpt>
      <trkpt lat="43.05418" lon="3.04666">
        <ele>16.589</ele>
        <time>2012-03-04T11:36:26Z</time>
      </trkpt>
      <trkpt lat="43.05411" lon="3.04673">
        <ele>15.529</ele>
        <time>2012-03-04T11:36:33Z</time>
      </trkpt>
      <trkpt lat="43.05401" lon="3.04681">
        <ele>13.858</ele>
        <time>2012-03-04T11:36:43Z</time>
      </trkpt>
      <trkpt lat="43.0539" lon="3.04688">
        <ele>11.028</ele>
        <time>2012-03-04T11:36:53Z</time>
      </trkpt>
      <trkpt lat="43.05379" lon="3.04693">
        <ele>9.247</ele>
        <time>2012-03-04T11:37:02Z</time>
      </trkpt>
      <trkpt lat="43.05371" lon="3.04702">
        <ele>6.657</ele>
        <time>2012-03-04T11:37:11Z</time>
      </trkpt>
      <trkpt lat="43.05362" lon="3.04713">
        <ele>7.829</ele>
        <time>2012-03-04T11:37:19Z</time>
      </trkpt>
      <trkpt lat="43.05355" lon="3.04724">
        <ele>5.648</ele>
        <time>2012-03-04T11:37:28Z</time>
      </trkpt>
      <trkpt lat="43.05346" lon="3.04736">
        <ele>6.208</ele>
        <time>2012-03-04T11:37:37Z</time>
      </trkpt>
      <trkpt lat="43.05335" lon="3.04755">
        <ele>12.539</ele>
        <time>2012-03-04T11:37:45Z</time>
      </trkpt>
      <trkpt lat="43.05333" lon="3.0476">
        <ele>12.659</ele>
        <time>2012-03-04T11:37:48Z</time>
      </trkpt>
      <trkpt lat="43.05331" lon="3.04763">
        <ele>11.469</ele>
        <time>2012-03-04T11:37:54Z</time>
      </trkpt>
      <trkpt lat="43.05329" lon="3.04764">
        <ele>10.859</ele>
        <time>2012-03-04T11:37:58Z</time>
      </trkpt>
      <trkpt lat="43.05316" lon="3.04758">
        <ele>10.179</ele>
        <time>2012-03-04T11:38:08Z</time>
      </trkpt>
      <trkpt lat="43.05309" lon="3.04751">
        <ele>9.3</ele>
        <time>2012-03-04T11:38:15Z</time>
      </trkpt>
      <trkpt lat="43.053" lon="3.04748">
        <ele>8.7</ele>
        <time>2012-03-04T11:38:22Z</time>
      </trkpt>
      <trkpt lat="43.05288" lon="3.04744">
        <ele>9.45</ele>
        <time>2012-03-04T11:38:31Z</time>
      </trkpt>
      <trkpt lat="43.05278" lon="3.04738">
        <ele>11.501</ele>
        <time>2012-03-04T11:38:39Z</time>
      </trkpt>
      <trkpt lat="43.05268" lon="3.04731">
        <ele>13.341</ele>
        <time>2012-03-04T11:38:47Z</time>
      </trkpt>
      <trkpt lat="43.05258" lon="3.04726">
        <ele>14.64</ele>
        <time>2012-03-04T11:38:55Z</time>
      </trkpt>
      <trkpt lat="43.05251" lon="3.04725">
        <ele>15.84</ele>
        <time>2012-03-04T11:39:01Z</time>
      </trkpt>
      <trkpt lat="43.0524" lon="3.04726">
        <ele>17.33</ele>
        <time>2012-03-04T11:39:09Z</time>
      </trkpt>
      <trkpt lat="43.05235" lon="3.04723">
        <ele>17.72</ele>
        <time>2012-03-04T11:39:15Z</time>
      </trkpt>
      <trkpt lat="43.05228" lon="3.04726">
        <ele>20.972</ele>
        <time>2012-03-04T11:39:20Z</time>
      </trkpt>
      <trkpt lat="43.05218" lon="3.04739">
        <ele>19.89</ele>
        <time>2012-03-04T11:39:31Z</time>
      </trkpt>
      <trkpt lat="43.05208" lon="3.04757">
        <ele>18.99</ele>
        <time>2012-03-04T11:39:43Z</time>
      </trkpt>
      <trkpt lat="43.05202" lon="3.0477">
        <ele>18.52</ele>
        <time>2012-03-04T11:39:52Z</time>
      </trkpt>
      <trkpt lat="43.05197" lon="3.04782">
        <ele>17.638</ele>
        <time>2012-03-04T11:40:00Z</time>
      </trkpt>
      <trkpt lat="43.0519" lon="3.04792">
        <ele>15.389</ele>
        <time>2012-03-04T11:40:10Z</time>
      </trkpt>
      <trkpt lat="43.0518" lon="3.04803">
        <ele>14.629</ele>
        <time>2012-03-04T11:40:21Z</time>
      </trkpt>
      <trkpt lat="43.05168" lon="3.04814">
        <ele>13.609</ele>
        <time>2012-03-04T11:40:32Z</time>
      </trkpt>
      <trkpt lat="43.05158" lon="3.04826">
        <ele>11.639</ele>
        <time>2012-03-04T11:40:43Z</time>
      </trkpt>
      <trkpt lat="43.05157" lon="3.04836">
        <ele>8.887</ele>
        <time>2012-03-04T11:40:51Z</time>
      </trkpt>
      <trkpt lat="43.05158" lon="3.04838">
        <ele>8.188</ele>
        <time>2012-03-04T11:40:53Z</time>
      </trkpt>
      <trkpt lat="43.05154" lon="3.04847">
        <ele>18.653</ele>
        <time>2012-03-04T11:41:01Z</time>
      </trkpt>
      <trkpt lat="43.05156" lon="3.04861">
        <ele>20.67</ele>
        <time>2012-03-04T11:41:10Z</time>
      </trkpt>
      <trkpt lat="43.05161" lon="3.04873">
        <ele>21.208</ele>
        <time>2012-03-04T11:41:18Z</time>
      </trkpt>
      <trkpt lat="43.05165" lon="3.04885">
        <ele>21.798</ele>
        <time>2012-03-04T11:41:26Z</time>
      </trkpt>
      <trkpt lat="43.0517" lon="3.04899">
        <ele>19.219</ele>
        <time>2012-03-04T11:41:35Z</time>
      </trkpt>
      <trkpt lat="43.05174" lon="3.04912">
        <ele>16.879</ele>
        <time>2012-03-04T11:41:43Z</time>
      </trkpt>
      <trkpt lat="43.05175" lon="3.04929">
        <ele>14.579</ele>
        <time>2012-03-04T11:41:53Z</time>
      </trkpt>
      <trkpt lat="43.05174" lon="3.04942">
        <ele>12.81</ele>
        <time>2012-03-04T11:42:03Z</time>
      </trkpt>
      <trkpt lat="43.05173" lon="3.04945">
        <ele>14.981</ele>
        <time>2012-03-04T11:42:10Z</time>
      </trkpt>
      <trkpt lat="43.05173" lon="3.0495">
        <ele>17.37</ele>
        <time>2012-03-04T11:42:17Z</time>
      </trkpt>
      <trkpt lat="43.05173" lon="3.04956">
        <ele>16.629</ele>
        <time>2012-03-04T11:42:21Z</time>
      </trkpt>
      <trkpt lat="43.05174" lon="3.04972">
        <ele>12.638</ele>
        <time>2012-03-04T11:42:32Z</time>
      </trkpt>
      <trkpt lat="43.05177" lon="3.04989">
        <ele>8.248</ele>
        <time>2012-03-04T11:42:44Z</time>
      </trkpt>
      <trkpt lat="43.05179" lon="3.05003">
        <ele>5.399</ele>
        <time>2012-03-04T11:42:53Z</time>
      </trkpt>
      <trkpt lat="43.05179" lon="3.05022">
        <ele>2.439</ele>
        <time>2012-03-04T11:43:05Z</time>
      </trkpt>
      <trkpt lat="43.0518" lon="3.05036">
        <ele>0.949</ele>
        <time>2012-03-04T11:43:13Z</time>
      </trkpt>
      <trkpt lat="43.05182" lon="3.0505">
        <ele>-0.881</ele>
        <time>2012-03-04T11:43:22Z</time>
      </trkpt>
      <trkpt lat="43.05179" lon="3.05058">
        <ele>3.58</ele>
        <time>2012-03-04T11:43:26Z</time>
      </trkpt>
      <trkpt lat="43.05169" lon="3.05059">
        <ele>12.201</ele>
        <time>2012-03-04T11:43:34Z</time>
      </trkpt>
      <trkpt lat="43.05168" lon="3.0506">
        <ele>14.661</ele>
        <time>2012-03-04T11:43:42Z</time>
      </trkpt>
      <trkpt lat="43.05169" lon="3.05064">
        <ele>16.45</ele>
        <time>2012-03-04T11:43:51Z</time>
      </trkpt>
      <trkpt lat="43.05173" lon="3.05071">
        <ele>15.901</ele>
        <time>2012-03-04T11:43:56Z</time>
      </trkpt>
      <trkpt lat="43.05174" lon="3.05086">
        <ele>16.581</ele>
        <time>2012-03-04T11:44:05Z</time>
      </trkpt>
      <trkpt lat="43.05172" lon="3.051">
        <ele>18.831</ele>
        <time>2012-03-04T11:44:12Z</time>
      </trkpt>
      <trkpt lat="43.05171" lon="3.05102">
        <ele>19.011</ele>
        <time>2012-03-04T11:44:13Z</time>
      </trkpt>
      <trkpt lat="43.05172" lon="3.05108">
        <ele>17.881</ele>
        <time>2012-03-04T11:44:17Z</time>
      </trkpt>
      <trkpt lat="43.05174" lon="3.05128">
        <ele>15.27</ele>
        <time>2012-03-04T11:44:29Z</time>
      </trkpt>
      <trkpt lat="43.05175" lon="3.05144">
        <ele>14.82</ele>
        <time>2012-03-04T11:44:39Z</time>
      </trkpt>
      <trkpt lat="43.05172" lon="3.05156">
        <ele>13.83</ele>
        <time>2012-03-04T11:44:46Z</time>
      </trkpt>
      <trkpt lat="43.05168" lon="3.05166">
        <ele>16.291</ele>
        <time>2012-03-04T11:44:50Z</time>
      </trkpt>
      <trkpt lat="43.05167" lon="3.05181">
        <ele>15.8</ele>
        <time>2012-03-04T11:44:58Z</time>
      </trkpt>
      <trkpt lat="43.05167" lon="3.05186">
        <ele>16.01</ele>
        <time>2012-03-04T11:45:03Z</time>
      </trkpt>
      <trkpt lat="43.0517" lon="3.05186">
        <ele>17.141</ele>
        <time>2012-03-04T11:45:13Z</time>
      </trkpt>
      <trkpt lat="43.05169" lon="3.05187">
        <ele>17.271</ele>
        <time>2012-03-04T11:45:17Z</time>
      </trkpt>
      <trkpt lat="43.05164" lon="3.05193">
        <ele>17.011</ele>
        <time>2012-03-04T11:45:23Z</time>
      </trkpt>
      <trkpt lat="43.05159" lon="3.05203">
        <ele>16.101</ele>
        <time>2012-03-04T11:45:30Z</time>
      </trkpt>
      <trkpt lat="43.05153" lon="3.05215">
        <ele>17.23</ele>
        <time>2012-03-04T11:45:38Z</time>
      </trkpt>
      <trkpt lat="43.05145" lon="3.05227">
        <ele>18.701</ele>
        <time>2012-03-04T11:45:47Z</time>
      </trkpt>
      <trkpt lat="43.05135" lon="3.05238">
        <ele>19.301</ele>
        <time>2012-03-04T11:45:56Z</time>
      </trkpt>
      <trkpt lat="43.05128" lon="3.05247">
        <ele>17.321</ele>
        <time>2012-03-04T11:46:04Z</time>
      </trkpt>
      <trkpt lat="43.05121" lon="3.05257">
        <ele>17.38</ele>
        <time>2012-03-04T11:46:12Z</time>
      </trkpt>
      <trkpt lat="43.05117" lon="3.05266">
        <ele>17.36</ele>
        <time>2012-03-04T11:46:18Z</time>
      </trkpt>
      <trkpt lat="43.05109" lon="3.05283">
        <ele>20.262</ele>
        <time>2012-03-04T11:46:28Z</time>
      </trkpt>
      <trkpt lat="43.05103" lon="3.0529">
        <ele>20.661</ele>
        <time>2012-03-04T11:46:35Z</time>
      </trkpt>
      <trkpt lat="43.05093" lon="3.05301">
        <ele>21.601</ele>
        <time>2012-03-04T11:46:44Z</time>
      </trkpt>
      <trkpt lat="43.05086" lon="3.0531">
        <ele>20.47</ele>
        <time>2012-03-04T11:46:52Z</time>
      </trkpt>
      <trkpt lat="43.05084" lon="3.05313">
        <ele>20.731</ele>
        <time>2012-03-04T11:46:54Z</time>
      </trkpt>
      <trkpt lat="43.05077" lon="3.05323">
        <ele>19.491</ele>
        <time>2012-03-04T11:47:01Z</time>
      </trkpt>
      <trkpt lat="43.05067" lon="3.05335">
        <ele>19.741</ele>
        <time>2012-03-04T11:47:11Z</time>
      </trkpt>
      <trkpt lat="43.05061" lon="3.05344">
        <ele>17.56</ele>
        <time>2012-03-04T11:47:17Z</time>
      </trkpt>
      <trkpt lat="43.05052" lon="3.05355">
        <ele>16.361</ele>
        <time>2012-03-04T11:47:26Z</time>
      </trkpt>
      <trkpt lat="43.05043" lon="3.05364">
        <ele>16.811</ele>
        <time>2012-03-04T11:47:35Z</time>
      </trkpt>
      <trkpt lat="43.05035" lon="3.05374">
        <ele>16.681</ele>
        <time>2012-03-04T11:47:42Z</time>
      </trkpt>
      <trkpt lat="43.05029" lon="3.05385">
        <ele>16.841</ele>
        <time>2012-03-04T11:47:50Z</time>
      </trkpt>
      <trkpt lat="43.05025" lon="3.05396">
        <ele>13.691</ele>
        <time>2012-03-04T11:47:58Z</time>
      </trkpt>
      <trkpt lat="43.05019" lon="3.05407">
        <ele>13.011</ele>
        <time>2012-03-04T11:48:06Z</time>
      </trkpt>
      <trkpt lat="43.05013" lon="3.05418">
        <ele>11.151</ele>
        <time>2012-03-04T11:48:14Z</time>
      </trkpt>
      <trkpt lat="43.05007" lon="3.0543">
        <ele>11.031</ele>
        <time>2012-03-04T11:48:22Z</time>
      </trkpt>
      <trkpt lat="43.04999" lon="3.05444">
        <ele>10.331</ele>
        <time>2012-03-04T11:48:31Z</time>
      </trkpt>
      <trkpt lat="43.04994" lon="3.05458">
        <ele>11.791</ele>
        <time>2012-03-04T11:48:39Z</time>
      </trkpt>
      <trkpt lat="43.04989" lon="3.05471">
        <ele>11.511</ele>
        <time>2012-03-04T11:48:47Z</time>
      </trkpt>
      <trkpt lat="43.04981" lon="3.0548">
        <ele>10.181</ele>
        <time>2012-03-04T11:48:55Z</time>
      </trkpt>
      <trkpt lat="43.04971" lon="3.05485">
        <ele>11.224</ele>
        <time>2012-03-04T11:49:02Z</time>
      </trkpt>
      <trkpt lat="43.04964" lon="3.05487">
        <ele>10.442</ele>
        <time>2012-03-04T11:49:09Z</time>
      </trkpt>
      <trkpt lat="43.04958" lon="3.05491">
        <ele>10.911</ele>
        <time>2012-03-04T11:49:16Z</time>
      </trkpt>
      <trkpt lat="43.04955" lon="3.05496">
        <ele>11.181</ele>
        <time>2012-03-04T11:49:23Z</time>
      </trkpt>
      <trkpt lat="43.04956" lon="3.05493">
        <ele>2.11</ele>
        <time>2012-03-04T11:49:41Z</time>
      </trkpt>
      <trkpt lat="43.0496" lon="3.055">
        <ele>2.521</ele>
        <time>2012-03-04T11:49:48Z</time>
      </trkpt>
      <trkpt lat="43.04961" lon="3.05507">
        <ele>2.662</ele>
        <time>2012-03-04T11:49:53Z</time>
      </trkpt>
      <trkpt lat="43.04964" lon="3.05509">
        <ele>9.324</ele>
        <time>2012-03-04T11:49:59Z</time>
      </trkpt>
      <trkpt lat="43.04967" lon="3.05504">
        <ele>14.464</ele>
        <time>2012-03-04T11:50:06Z</time>
      </trkpt>
      <trkpt lat="43.04972" lon="3.05502">
        <ele>9.04</ele>
        <time>2012-03-04T11:50:16Z</time>
      </trkpt>
      <trkpt lat="43.0497" lon="3.05506">
        <ele>8.45</ele>
        <time>2012-03-04T11:50:22Z</time>
      </trkpt>
      <trkpt lat="43.04975" lon="3.0551">
        <ele>8.99</ele>
        <time>2012-03-04T11:50:29Z</time>
      </trkpt>
      <trkpt lat="43.04977" lon="3.05508">
        <ele>5.97</ele>
        <time>2012-03-04T11:50:37Z</time>
      </trkpt>
      <trkpt lat="43.04981" lon="3.05515">
        <ele>-3.453</ele>
        <time>2012-03-04T11:50:49Z</time>
      </trkpt>
      <trkpt lat="43.04978" lon="3.05513">
        <ele>-1.982</ele>
        <time>2012-03-04T11:50:53Z</time>
      </trkpt>
      <trkpt lat="43.0498" lon="3.05518">
        <ele>-4.722</ele>
        <time>2012-03-04T11:50:59Z</time>
      </trkpt>
      <trkpt lat="43.04981" lon="3.05521">
        <ele>-6.682</ele>
        <time>2012-03-04T11:51:03Z</time>
      </trkpt>
      <trkpt lat="43.04978" lon="3.05525">
        <ele>-2.92</ele>
        <time>2012-03-04T11:51:06Z</time>
      </trkpt>
      <trkpt lat="43.04972" lon="3.05523">
        <ele>-3.19</ele>
        <time>2012-03-04T11:51:12Z</time>
      </trkpt>
      <trkpt lat="43.04971" lon="3.0552">
        <ele>-0.459</ele>
        <time>2012-03-04T11:51:15Z</time>
      </trkpt>
      <trkpt lat="43.04967" lon="3.05521">
        <ele>6.712</ele>
        <time>2012-03-04T11:51:21Z</time>
      </trkpt>
      <trkpt lat="43.04966" lon="3.0552">
        <ele>7.803</ele>
        <time>2012-03-04T11:51:22Z</time>
      </trkpt>
      <trkpt lat="43.04959" lon="3.05511">
        <ele>9.913</ele>
        <time>2012-03-04T11:51:30Z</time>
      </trkpt>
      <trkpt lat="43.04956" lon="3.05505">
        <ele>10.252</ele>
        <time>2012-03-04T11:51:34Z</time>
      </trkpt>
      <trkpt lat="43.04949" lon="3.05495">
        <ele>9.561</ele>
        <time>2012-03-04T11:51:43Z</time>
      </trkpt>
      <trkpt lat="43.04945" lon="3.05494">
        <ele>9.671</ele>
        <time>2012-03-04T11:51:47Z</time>
      </trkpt>
      <trkpt lat="43.04935" lon="3.05498">
        <ele>13.311</ele>
        <time>2012-03-04T11:51:56Z</time>
      </trkpt>
      <trkpt lat="43.04928" lon="3.05504">
        <ele>11.082</ele>
        <time>2012-03-04T11:52:04Z</time>
      </trkpt>
      <trkpt lat="43.04924" lon="3.05508">
        <ele>10.711</ele>
        <time>2012-03-04T11:52:10Z</time>
      </trkpt>
      <trkpt lat="43.04914" lon="3.05511">
        <ele>7.711</ele>
        <time>2012-03-04T11:52:20Z</time>
      </trkpt>
      <trkpt lat="43.04909" lon="3.05511">
        <ele>6.83</ele>
        <time>2012-03-04T11:52:24Z</time>
      </trkpt>
      <trkpt lat="43.04897" lon="3.05505">
        <ele>9.231</ele>
        <time>2012-03-04T11:52:33Z</time>
      </trkpt>
      <trkpt lat="43.04886" lon="3.05499">
        <ele>10.381</ele>
        <time>2012-03-04T11:52:40Z</time>
      </trkpt>
      <trkpt lat="43.04876" lon="3.05494">
        <ele>11.842</ele>
        <time>2012-03-04T11:52:47Z</time>
      </trkpt>
      <trkpt lat="43.04865" lon="3.0549">
        <ele>17.062</ele>
        <time>2012-03-04T11:52:56Z</time>
      </trkpt>
      <trkpt lat="43.04857" lon="3.05482">
        <ele>18.091</ele>
        <time>2012-03-04T11:53:05Z</time>
      </trkpt>
      <trkpt lat="43.04853" lon="3.05475">
        <ele>12.59</ele>
        <time>2012-03-04T11:53:12Z</time>
      </trkpt>
      <trkpt lat="43.04846" lon="3.05461">
        <ele>10.421</ele>
        <time>2012-03-04T11:53:22Z</time>
      </trkpt>
      <trkpt lat="43.04843" lon="3.05455">
        <ele>8.68</ele>
        <time>2012-03-04T11:53:30Z</time>
      </trkpt>
      <trkpt lat="43.04842" lon="3.0545">
        <ele>8.701</ele>
        <time>2012-03-04T11:53:34Z</time>
      </trkpt>
      <trkpt lat="43.04836" lon="3.05432">
        <ele>9.392</ele>
        <time>2012-03-04T11:53:45Z</time>
      </trkpt>
      <trkpt lat="43.04829" lon="3.05416">
        <ele>10.804</ele>
        <time>2012-03-04T11:53:55Z</time>
      </trkpt>
      <trkpt lat="43.0482" lon="3.05405">
        <ele>10.801</ele>
        <time>2012-03-04T11:54:05Z</time>
      </trkpt>
      <trkpt lat="43.04812" lon="3.05401">
        <ele>10.549</ele>
        <time>2012-03-04T11:54:12Z</time>
      </trkpt>
      <trkpt lat="43.04804" lon="3.05397">
        <ele>8.068</ele>
        <time>2012-03-04T11:54:18Z</time>
      </trkpt>
      <trkpt lat="43.04802" lon="3.05396">
        <ele>5.817</ele>
        <time>2012-03-04T11:54:20Z</time>
      </trkpt>
      <trkpt lat="43.048" lon="3.05396">
        <ele>4.868</ele>
        <time>2012-03-04T11:54:22Z</time>
      </trkpt>
      <trkpt lat="43.04794" lon="3.05397">
        <ele>4.979</ele>
        <time>2012-03-04T11:54:28Z</time>
      </trkpt>
      <trkpt lat="43.04793" lon="3.05402">
        <ele>3.159</ele>
        <time>2012-03-04T11:54:34Z</time>
      </trkpt>
      <trkpt lat="43.04792" lon="3.05405">
        <ele>4.96</ele>
        <time>2012-03-04T11:54:40Z</time>
      </trkpt>
      <trkpt lat="43.0479" lon="3.05417">
        <ele>6.451</ele>
        <time>2012-03-04T11:54:47Z</time>
      </trkpt>
      <trkpt lat="43.04789" lon="3.05424">
        <ele>5.83</ele>
        <time>2012-03-04T11:54:54Z</time>
      </trkpt>
      <trkpt lat="43.04787" lon="3.05426">
        <ele>6.32</ele>
        <time>2012-03-04T11:54:58Z</time>
      </trkpt>
      <trkpt lat="43.04788" lon="3.05428">
        <ele>4.639</ele>
        <time>2012-03-04T11:55:05Z</time>
      </trkpt>
      <trkpt lat="43.04786" lon="3.05436">
        <ele>7.11</ele>
        <time>2012-03-04T11:55:13Z</time>
      </trkpt>
      <trkpt lat="43.04784" lon="3.05449">
        <ele>6.089</ele>
        <time>2012-03-04T11:55:20Z</time>
      </trkpt>
      <trkpt lat="43.0478" lon="3.05463">
        <ele>2.339</ele>
        <time>2012-03-04T11:55:28Z</time>
      </trkpt>
      <trkpt lat="43.04776" lon="3.05477">
        <ele>4.37</ele>
        <time>2012-03-04T11:55:37Z</time>
      </trkpt>
      <trkpt lat="43.04773" lon="3.05489">
        <ele>2.62</ele>
        <time>2012-03-04T11:55:44Z</time>
      </trkpt>
      <trkpt lat="43.0477" lon="3.05501">
        <ele>1.96</ele>
        <time>2012-03-04T11:55:50Z</time>
      </trkpt>
      <trkpt lat="43.04767" lon="3.05512">
        <ele>5.662</ele>
        <time>2012-03-04T11:55:57Z</time>
      </trkpt>
      <trkpt lat="43.04764" lon="3.05525">
        <ele>6.192</ele>
        <time>2012-03-04T11:56:04Z</time>
      </trkpt>
      <trkpt lat="43.04762" lon="3.05533">
        <ele>3.851</ele>
        <time>2012-03-04T11:56:09Z</time>
      </trkpt>
      <trkpt lat="43.04756" lon="3.05542">
        <ele>5.971</ele>
        <time>2012-03-04T11:56:17Z</time>
      </trkpt>
      <trkpt lat="43.04749" lon="3.05556">
        <ele>8.361</ele>
        <time>2012-03-04T11:56:26Z</time>
      </trkpt>
      <trkpt lat="43.04746" lon="3.05563">
        <ele>7.091</ele>
        <time>2012-03-04T11:56:30Z</time>
      </trkpt>
      <trkpt lat="43.04745" lon="3.05574">
        <ele>4.361</ele>
        <time>2012-03-04T11:56:37Z</time>
      </trkpt>
      <trkpt lat="43.0474" lon="3.05588">
        <ele>2.779</ele>
        <time>2012-03-04T11:56:45Z</time>
      </trkpt>
      <trkpt lat="43.04737" lon="3.05595">
        <ele>5</ele>
        <time>2012-03-04T11:56:51Z</time>
      </trkpt>
      <trkpt lat="43.04735" lon="3.05602">
        <ele>8.97</ele>
        <time>2012-03-04T11:57:07Z</time>
      </trkpt>
      <trkpt lat="43.04733" lon="3.05604">
        <ele>5.46</ele>
        <time>2012-03-04T11:57:17Z</time>
      </trkpt>
      <trkpt lat="43.04732" lon="3.05607">
        <ele>7.421</ele>
        <time>2012-03-04T11:57:21Z</time>
      </trkpt>
      <trkpt lat="43.04729" lon="3.0561">
        <ele>4.899</ele>
        <time>2012-03-04T11:57:25Z</time>
      </trkpt>
      <trkpt lat="43.04721" lon="3.05608">
        <ele>5.42</ele>
        <time>2012-03-04T11:57:32Z</time>
      </trkpt>
      <trkpt lat="43.04712" lon="3.05603">
        <ele>8.221</ele>
        <time>2012-03-04T11:57:40Z</time>
      </trkpt>
      <trkpt lat="43.04705" lon="3.05599">
        <ele>8.801</ele>
        <time>2012-03-04T11:57:47Z</time>
      </trkpt>
      <trkpt lat="43.04697" lon="3.05594">
        <ele>7.681</ele>
        <time>2012-03-04T11:57:55Z</time>
      </trkpt>
      <trkpt lat="43.04693" lon="3.05587">
        <ele>5.42</ele>
        <time>2012-03-04T11:58:01Z</time>
      </trkpt>
      <trkpt lat="43.04681" lon="3.05577">
        <ele>8.021</ele>
        <time>2012-03-04T11:58:11Z</time>
      </trkpt>
      <trkpt lat="43.0468" lon="3.05576">
        <ele>8.081</ele>
        <time>2012-03-04T11:58:12Z</time>
      </trkpt>
      <trkpt lat="43.04672" lon="3.05575">
        <ele>9.641</ele>
        <time>2012-03-04T11:58:18Z</time>
      </trkpt>
      <trkpt lat="43.04663" lon="3.05571">
        <ele>10.961</ele>
        <time>2012-03-04T11:58:25Z</time>
      </trkpt>
      <trkpt lat="43.04656" lon="3.05565">
        <ele>10.191</ele>
        <time>2012-03-04T11:58:32Z</time>
      </trkpt>
      <trkpt lat="43.04646" lon="3.0556">
        <ele>9.99</ele>
        <time>2012-03-04T11:58:40Z</time>
      </trkpt>
      <trkpt lat="43.04634" lon="3.05553">
        <ele>7.149</ele>
        <time>2012-03-04T11:58:50Z</time>
      </trkpt>
      <trkpt lat="43.04625" lon="3.05548">
        <ele>7.05</ele>
        <time>2012-03-04T11:58:58Z</time>
      </trkpt>
      <trkpt lat="43.04614" lon="3.05542">
        <ele>7.971</ele>
        <time>2012-03-04T11:59:07Z</time>
      </trkpt>
      <trkpt lat="43.04608" lon="3.05536">
        <ele>5.289</ele>
        <time>2012-03-04T11:59:14Z</time>
      </trkpt>
      <trkpt lat="43.04598" lon="3.0553">
        <ele>7.38</ele>
        <time>2012-03-04T11:59:21Z</time>
      </trkpt>
      <trkpt lat="43.04588" lon="3.05524">
        <ele>8.43</ele>
        <time>2012-03-04T11:59:29Z</time>
      </trkpt>
      <trkpt lat="43.04579" lon="3.05519">
        <ele>6.519</ele>
        <time>2012-03-04T11:59:37Z</time>
      </trkpt>
      <trkpt lat="43.04574" lon="3.05515">
        <ele>4.318</ele>
        <time>2012-03-04T11:59:43Z</time>
      </trkpt>
      <trkpt lat="43.04566" lon="3.0551">
        <ele>1.778</ele>
        <time>2012-03-04T11:59:51Z</time>
      </trkpt>
      <trkpt lat="43.04557" lon="3.05507">
        <ele>0.588</ele>
        <time>2012-03-04T11:59:58Z</time>
      </trkpt>
      <trkpt lat="43.04547" lon="3.05502">
        <ele>2.099</ele>
        <time>2012-03-04T12:00:05Z</time>
      </trkpt>
      <trkpt lat="43.04537" lon="3.05493">
        <ele>5.71</ele>
        <time>2012-03-04T12:00:12Z</time>
      </trkpt>
      <trkpt lat="43.0453" lon="3.05487">
        <ele>3.198</ele>
        <time>2012-03-04T12:00:20Z</time>
      </trkpt>
      <trkpt lat="43.04522" lon="3.05483">
        <ele>1.008</ele>
        <time>2012-03-04T12:00:27Z</time>
      </trkpt>
      <trkpt lat="43.0451" lon="3.05473">
        <ele>3.039</ele>
        <time>2012-03-04T12:00:37Z</time>
      </trkpt>
      <trkpt lat="43.04504" lon="3.05468">
        <ele>3.189</ele>
        <time>2012-03-04T12:00:43Z</time>
      </trkpt>
      <trkpt lat="43.04495" lon="3.05461">
        <ele>0.299</ele>
        <time>2012-03-04T12:00:52Z</time>
      </trkpt>
      <trkpt lat="43.04485" lon="3.05454">
        <ele>0.5</ele>
        <time>2012-03-04T12:01:00Z</time>
      </trkpt>
      <trkpt lat="43.04471" lon="3.05446">
        <ele>-0.662</ele>
        <time>2012-03-04T12:01:11Z</time>
      </trkpt>
      <trkpt lat="43.04464" lon="3.05441">
        <ele>-0.182</ele>
        <time>2012-03-04T12:01:18Z</time>
      </trkpt>
      <trkpt lat="43.04451" lon="3.05433">
        <ele>-0.852</ele>
        <time>2012-03-04T12:01:28Z</time>
      </trkpt>
      <trkpt lat="43.04439" lon="3.05427">
        <ele>0.129</ele>
        <time>2012-03-04T12:01:37Z</time>
      </trkpt>
      <trkpt lat="43.04428" lon="3.0542">
        <ele>0.928</ele>
        <time>2012-03-04T12:01:46Z</time>
      </trkpt>
      <trkpt lat="43.04417" lon="3.05413">
        <ele>1.719</ele>
        <time>2012-03-04T12:01:55Z</time>
      </trkpt>
      <trkpt lat="43.04409" lon="3.05408">
        <ele>3.328</ele>
        <time>2012-03-04T12:02:02Z</time>
      </trkpt>
      <trkpt lat="43.04396" lon="3.05401">
        <ele>3.317</ele>
        <time>2012-03-04T12:02:13Z</time>
      </trkpt>
      <trkpt lat="43.04383" lon="3.05394">
        <ele>4.819</ele>
        <time>2012-03-04T12:02:23Z</time>
      </trkpt>
      <trkpt lat="43.04373" lon="3.05388">
        <ele>5.609</ele>
        <time>2012-03-04T12:02:31Z</time>
      </trkpt>
      <trkpt lat="43.04363" lon="3.05381">
        <ele>6.668</ele>
        <time>2012-03-04T12:02:40Z</time>
      </trkpt>
      <trkpt lat="43.04351" lon="3.05373">
        <ele>6.948</ele>
        <time>2012-03-04T12:02:50Z</time>
      </trkpt>
      <trkpt lat="43.04338" lon="3.05364">
        <ele>8.458</ele>
        <time>2012-03-04T12:03:01Z</time>
      </trkpt>
      <trkpt lat="43.04324" lon="3.05356">
        <ele>10.648</ele>
        <time>2012-03-04T12:03:12Z</time>
      </trkpt>
      <trkpt lat="43.04313" lon="3.05349">
        <ele>11.648</ele>
        <time>2012-03-04T12:03:21Z</time>
      </trkpt>
      <trkpt lat="43.043" lon="3.05342">
        <ele>8.387</ele>
        <time>2012-03-04T12:03:32Z</time>
      </trkpt>
      <trkpt lat="43.04286" lon="3.05337">
        <ele>6.357</ele>
        <time>2012-03-04T12:03:43Z</time>
      </trkpt>
      <trkpt lat="43.04282" lon="3.05331">
        <ele>2.587</ele>
        <time>2012-03-04T12:03:51Z</time>
      </trkpt>
      <trkpt lat="43.04279" lon="3.05329">
        <ele>3.738</ele>
        <time>2012-03-04T12:04:01Z</time>
      </trkpt>
      <trkpt lat="43.04269" lon="3.05319">
        <ele>6.468</ele>
        <time>2012-03-04T12:04:10Z</time>
      </trkpt>
      <trkpt lat="43.04259" lon="3.05316">
        <ele>6.808</ele>
        <time>2012-03-04T12:04:18Z</time>
      </trkpt>
      <trkpt lat="43.04253" lon="3.05313">
        <ele>5.688</ele>
        <time>2012-03-04T12:04:25Z</time>
      </trkpt>
      <trkpt lat="43.04247" lon="3.05309">
        <ele>5.548</ele>
        <time>2012-03-04T12:04:32Z</time>
      </trkpt>
      <trkpt lat="43.04244" lon="3.05311">
        <ele>4.778</ele>
        <time>2012-03-04T12:04:51Z</time>
      </trkpt>
      <trkpt lat="43.04244" lon="3.05313">
        <ele>5.388</ele>
        <time>2012-03-04T12:05:43Z</time>
      </trkpt>
      <trkpt lat="43.04244" lon="3.05313">
        <ele>5.281</ele>
        <time>2012-03-04T12:05:44Z</time>
      </trkpt>
    </trkseg>
  </trk>
</gpx>